<?xml version="1.0" encoding="UTF-8"?>
<gpx version="1.1" creator="https://www.youtrack.es" xsi:schemaLocation="http://www.topografix.com/GPX/1/1 http://www.topografix.com/GPX/1/1/gpx.xsd http://www.garmin.com/xmlschemas/GpxExtensions/v3 http://www.garmin.com/xmlschemas/GpxExtensionsv3.xsd http://www.garmin.com/xmlschemas/TrackPointExtension/v1 http://www.garmin.com/xmlschemas/TrackPointExtensionv1.xsd" xmlns:gpxtpx="http://www.garmin.com/xmlschemas/TrackPointExtension/v1" xmlns:gpxx="http://www.garmin.com/xmlschemas/GpxExtensions/v3" xmlns:xsi="http://www.w3.org/2001/XMLSchema-instance">
  <metadata>
    <link href="https://www.youtrack.es">
      <text>YouTrack.es</text>
    </link>
    <time>2026-05-09T02:38:49Z</time>
  </metadata>
  <trk>
    <src>https://www.youtrack.es</src>
    <link href="https://www.youtrack.es/ruta/4033-2-algueirao-mem-martins">
      <text>YouTrack.es</text>
    </link>
    <trkseg>
      <trkpt lat="38.7927860" lon="-9.3298370">
        <ele>159.4</ele>
        <time>2019-02-10T09:46:22Z</time>
      </trkpt>
      <trkpt lat="38.7928090" lon="-9.3298500">
        <ele>159.4</ele>
        <time>2019-02-10T09:46:23Z</time>
      </trkpt>
      <trkpt lat="38.7928320" lon="-9.3298600">
        <ele>159.4</ele>
        <time>2019-02-10T09:46:24Z</time>
      </trkpt>
      <trkpt lat="38.7928470" lon="-9.3298720">
        <ele>159.4</ele>
        <time>2019-02-10T09:46:25Z</time>
      </trkpt>
      <trkpt lat="38.7928730" lon="-9.3298930">
        <ele>159.4</ele>
        <time>2019-02-10T09:46:26Z</time>
      </trkpt>
      <trkpt lat="38.7929190" lon="-9.3299300">
        <ele>159.4</ele>
        <time>2019-02-10T09:46:28Z</time>
      </trkpt>
      <trkpt lat="38.7929650" lon="-9.3299570">
        <ele>159.4</ele>
        <time>2019-02-10T09:46:30Z</time>
      </trkpt>
      <trkpt lat="38.7930290" lon="-9.3299900">
        <ele>159.4</ele>
        <time>2019-02-10T09:46:32Z</time>
      </trkpt>
      <trkpt lat="38.7930520" lon="-9.3300150">
        <ele>159.4</ele>
        <time>2019-02-10T09:46:34Z</time>
      </trkpt>
      <trkpt lat="38.7931030" lon="-9.3300800">
        <ele>159.4</ele>
        <time>2019-02-10T09:46:37Z</time>
      </trkpt>
      <trkpt lat="38.7931440" lon="-9.3301300">
        <ele>159.4</ele>
        <time>2019-02-10T09:46:39Z</time>
      </trkpt>
      <trkpt lat="38.7932440" lon="-9.3301630">
        <ele>160.7</ele>
        <time>2019-02-10T09:46:45Z</time>
      </trkpt>
      <trkpt lat="38.7932930" lon="-9.3301980">
        <ele>160.7</ele>
        <time>2019-02-10T09:46:48Z</time>
      </trkpt>
      <trkpt lat="38.7933540" lon="-9.3302270">
        <ele>160.7</ele>
        <time>2019-02-10T09:46:50Z</time>
      </trkpt>
      <trkpt lat="38.7934030" lon="-9.3302670">
        <ele>160.7</ele>
        <time>2019-02-10T09:46:52Z</time>
      </trkpt>
      <trkpt lat="38.7934620" lon="-9.3303230">
        <ele>160.7</ele>
        <time>2019-02-10T09:46:54Z</time>
      </trkpt>
      <trkpt lat="38.7935000" lon="-9.3303550">
        <ele>160.7</ele>
        <time>2019-02-10T09:46:56Z</time>
      </trkpt>
      <trkpt lat="38.7935560" lon="-9.3304190">
        <ele>164.3</ele>
        <time>2019-02-10T09:46:59Z</time>
      </trkpt>
      <trkpt lat="38.7936050" lon="-9.3304550">
        <ele>164.3</ele>
        <time>2019-02-10T09:47:01Z</time>
      </trkpt>
      <trkpt lat="38.7936790" lon="-9.3304980">
        <ele>165.6</ele>
        <time>2019-02-10T09:47:03Z</time>
      </trkpt>
      <trkpt lat="38.7937380" lon="-9.3305330">
        <ele>165.6</ele>
        <time>2019-02-10T09:47:05Z</time>
      </trkpt>
      <trkpt lat="38.7937840" lon="-9.3305720">
        <ele>165.6</ele>
        <time>2019-02-10T09:47:07Z</time>
      </trkpt>
      <trkpt lat="38.7938280" lon="-9.3306000">
        <ele>166.8</ele>
        <time>2019-02-10T09:47:09Z</time>
      </trkpt>
      <trkpt lat="38.7938740" lon="-9.3306310">
        <ele>166.8</ele>
        <time>2019-02-10T09:47:12Z</time>
      </trkpt>
      <trkpt lat="38.7939000" lon="-9.3306790">
        <ele>166.8</ele>
        <time>2019-02-10T09:47:15Z</time>
      </trkpt>
      <trkpt lat="38.7939710" lon="-9.3307190">
        <ele>168.2</ele>
        <time>2019-02-10T09:47:21Z</time>
      </trkpt>
      <trkpt lat="38.7940150" lon="-9.3307600">
        <ele>168.2</ele>
        <time>2019-02-10T09:47:23Z</time>
      </trkpt>
      <trkpt lat="38.7940760" lon="-9.3308000">
        <ele>168.2</ele>
        <time>2019-02-10T09:47:25Z</time>
      </trkpt>
      <trkpt lat="38.7941270" lon="-9.3308380">
        <ele>168.2</ele>
        <time>2019-02-10T09:47:27Z</time>
      </trkpt>
      <trkpt lat="38.7941730" lon="-9.3308720">
        <ele>168.2</ele>
        <time>2019-02-10T09:47:29Z</time>
      </trkpt>
      <trkpt lat="38.7942200" lon="-9.3308950">
        <ele>168.2</ele>
        <time>2019-02-10T09:47:31Z</time>
      </trkpt>
      <trkpt lat="38.7942860" lon="-9.3309150">
        <ele>168.2</ele>
        <time>2019-02-10T09:47:34Z</time>
      </trkpt>
      <trkpt lat="38.7943650" lon="-9.3309480">
        <ele>169.4</ele>
        <time>2019-02-10T09:47:37Z</time>
      </trkpt>
      <trkpt lat="38.7944220" lon="-9.3309730">
        <ele>169.4</ele>
        <time>2019-02-10T09:47:39Z</time>
      </trkpt>
      <trkpt lat="38.7944600" lon="-9.3310070">
        <ele>169.4</ele>
        <time>2019-02-10T09:47:41Z</time>
      </trkpt>
      <trkpt lat="38.7945010" lon="-9.3310620">
        <ele>169.4</ele>
        <time>2019-02-10T09:47:44Z</time>
      </trkpt>
      <trkpt lat="38.7945290" lon="-9.3311210">
        <ele>170.5</ele>
        <time>2019-02-10T09:47:48Z</time>
      </trkpt>
      <trkpt lat="38.7946010" lon="-9.3311810">
        <ele>170.5</ele>
        <time>2019-02-10T09:47:51Z</time>
      </trkpt>
      <trkpt lat="38.7946520" lon="-9.3312180">
        <ele>170.5</ele>
        <time>2019-02-10T09:47:53Z</time>
      </trkpt>
      <trkpt lat="38.7946960" lon="-9.3312550">
        <ele>170.5</ele>
        <time>2019-02-10T09:47:55Z</time>
      </trkpt>
      <trkpt lat="38.7947470" lon="-9.3313040">
        <ele>170.5</ele>
        <time>2019-02-10T09:47:57Z</time>
      </trkpt>
      <trkpt lat="38.7947880" lon="-9.3313570">
        <ele>170.5</ele>
        <time>2019-02-10T09:47:59Z</time>
      </trkpt>
      <trkpt lat="38.7948340" lon="-9.3314090">
        <ele>170.5</ele>
        <time>2019-02-10T09:48:01Z</time>
      </trkpt>
      <trkpt lat="38.7948800" lon="-9.3314500">
        <ele>170.5</ele>
        <time>2019-02-10T09:48:03Z</time>
      </trkpt>
      <trkpt lat="38.7949260" lon="-9.3314870">
        <ele>171.7</ele>
        <time>2019-02-10T09:48:05Z</time>
      </trkpt>
      <trkpt lat="38.7949950" lon="-9.3315220">
        <ele>171.7</ele>
        <time>2019-02-10T09:48:08Z</time>
      </trkpt>
      <trkpt lat="38.7950670" lon="-9.3315590">
        <ele>171.7</ele>
        <time>2019-02-10T09:48:11Z</time>
      </trkpt>
      <trkpt lat="38.7951160" lon="-9.3315880">
        <ele>171.7</ele>
        <time>2019-02-10T09:48:13Z</time>
      </trkpt>
      <trkpt lat="38.7951740" lon="-9.3316170">
        <ele>172.9</ele>
        <time>2019-02-10T09:48:15Z</time>
      </trkpt>
      <trkpt lat="38.7952150" lon="-9.3316400">
        <ele>172.9</ele>
        <time>2019-02-10T09:48:17Z</time>
      </trkpt>
      <trkpt lat="38.7952610" lon="-9.3316710">
        <ele>172.9</ele>
        <time>2019-02-10T09:48:19Z</time>
      </trkpt>
      <trkpt lat="38.7953150" lon="-9.3317130">
        <ele>172.9</ele>
        <time>2019-02-10T09:48:21Z</time>
      </trkpt>
      <trkpt lat="38.7953690" lon="-9.3317560">
        <ele>172.9</ele>
        <time>2019-02-10T09:48:23Z</time>
      </trkpt>
      <trkpt lat="38.7954070" lon="-9.3317930">
        <ele>174.1</ele>
        <time>2019-02-10T09:48:25Z</time>
      </trkpt>
      <trkpt lat="38.7954460" lon="-9.3318640">
        <ele>174.1</ele>
        <time>2019-02-10T09:48:27Z</time>
      </trkpt>
      <trkpt lat="38.7954870" lon="-9.3319000">
        <ele>174.1</ele>
        <time>2019-02-10T09:48:29Z</time>
      </trkpt>
      <trkpt lat="38.7955330" lon="-9.3319230">
        <ele>174.1</ele>
        <time>2019-02-10T09:48:31Z</time>
      </trkpt>
      <trkpt lat="38.7956040" lon="-9.3319570">
        <ele>175.4</ele>
        <time>2019-02-10T09:48:34Z</time>
      </trkpt>
      <trkpt lat="38.7956660" lon="-9.3320030">
        <ele>175.4</ele>
        <time>2019-02-10T09:48:37Z</time>
      </trkpt>
      <trkpt lat="38.7957040" lon="-9.3320470">
        <ele>175.4</ele>
        <time>2019-02-10T09:48:39Z</time>
      </trkpt>
      <trkpt lat="38.7957660" lon="-9.3320970">
        <ele>176.7</ele>
        <time>2019-02-10T09:48:41Z</time>
      </trkpt>
      <trkpt lat="38.7958120" lon="-9.3321470">
        <ele>176.7</ele>
        <time>2019-02-10T09:48:43Z</time>
      </trkpt>
      <trkpt lat="38.7958480" lon="-9.3321950">
        <ele>176.7</ele>
        <time>2019-02-10T09:48:45Z</time>
      </trkpt>
      <trkpt lat="38.7959010" lon="-9.3322360">
        <ele>177.9</ele>
        <time>2019-02-10T09:48:48Z</time>
      </trkpt>
      <trkpt lat="38.7959550" lon="-9.3322710">
        <ele>177.9</ele>
        <time>2019-02-10T09:48:51Z</time>
      </trkpt>
      <trkpt lat="38.7960420" lon="-9.3323330">
        <ele>177.9</ele>
        <time>2019-02-10T09:48:56Z</time>
      </trkpt>
      <trkpt lat="38.7960880" lon="-9.3323710">
        <ele>179.2</ele>
        <time>2019-02-10T09:48:58Z</time>
      </trkpt>
      <trkpt lat="38.7961500" lon="-9.3324250">
        <ele>179.2</ele>
        <time>2019-02-10T09:49:01Z</time>
      </trkpt>
      <trkpt lat="38.7962110" lon="-9.3324840">
        <ele>177.9</ele>
        <time>2019-02-10T09:49:04Z</time>
      </trkpt>
      <trkpt lat="38.7962520" lon="-9.3325200">
        <ele>177.9</ele>
        <time>2019-02-10T09:49:06Z</time>
      </trkpt>
      <trkpt lat="38.7962960" lon="-9.3325530">
        <ele>177.9</ele>
        <time>2019-02-10T09:49:08Z</time>
      </trkpt>
      <trkpt lat="38.7963420" lon="-9.3325910">
        <ele>177.9</ele>
        <time>2019-02-10T09:49:11Z</time>
      </trkpt>
      <trkpt lat="38.7963980" lon="-9.3326390">
        <ele>180.9</ele>
        <time>2019-02-10T09:49:14Z</time>
      </trkpt>
      <trkpt lat="38.7964360" lon="-9.3326700">
        <ele>180.9</ele>
        <time>2019-02-10T09:49:16Z</time>
      </trkpt>
      <trkpt lat="38.7964930" lon="-9.3327180">
        <ele>182.1</ele>
        <time>2019-02-10T09:49:19Z</time>
      </trkpt>
      <trkpt lat="38.7965360" lon="-9.3327570">
        <ele>182.1</ele>
        <time>2019-02-10T09:49:22Z</time>
      </trkpt>
      <trkpt lat="38.7965620" lon="-9.3328390">
        <ele>183.3</ele>
        <time>2019-02-10T09:49:25Z</time>
      </trkpt>
      <trkpt lat="38.7966110" lon="-9.3328920">
        <ele>183.3</ele>
        <time>2019-02-10T09:49:28Z</time>
      </trkpt>
      <trkpt lat="38.7966620" lon="-9.3329290">
        <ele>183.3</ele>
        <time>2019-02-10T09:49:30Z</time>
      </trkpt>
      <trkpt lat="38.7967100" lon="-9.3329670">
        <ele>183.3</ele>
        <time>2019-02-10T09:49:32Z</time>
      </trkpt>
      <trkpt lat="38.7967560" lon="-9.3329970">
        <ele>184.4</ele>
        <time>2019-02-10T09:49:34Z</time>
      </trkpt>
      <trkpt lat="38.7968180" lon="-9.3330360">
        <ele>184.4</ele>
        <time>2019-02-10T09:49:37Z</time>
      </trkpt>
      <trkpt lat="38.7968640" lon="-9.3330570">
        <ele>184.4</ele>
        <time>2019-02-10T09:49:39Z</time>
      </trkpt>
      <trkpt lat="38.7969100" lon="-9.3330820">
        <ele>184.4</ele>
        <time>2019-02-10T09:49:41Z</time>
      </trkpt>
      <trkpt lat="38.7969740" lon="-9.3331390">
        <ele>184.4</ele>
        <time>2019-02-10T09:49:44Z</time>
      </trkpt>
      <trkpt lat="38.7970120" lon="-9.3331800">
        <ele>185.6</ele>
        <time>2019-02-10T09:49:46Z</time>
      </trkpt>
      <trkpt lat="38.7970660" lon="-9.3332120">
        <ele>185.6</ele>
        <time>2019-02-10T09:49:48Z</time>
      </trkpt>
      <trkpt lat="38.7971230" lon="-9.3332480">
        <ele>185.6</ele>
        <time>2019-02-10T09:49:50Z</time>
      </trkpt>
      <trkpt lat="38.7971740" lon="-9.3332910">
        <ele>185.6</ele>
        <time>2019-02-10T09:49:52Z</time>
      </trkpt>
      <trkpt lat="38.7972100" lon="-9.3333470">
        <ele>185.6</ele>
        <time>2019-02-10T09:49:54Z</time>
      </trkpt>
      <trkpt lat="38.7972450" lon="-9.3334030">
        <ele>185.6</ele>
        <time>2019-02-10T09:49:56Z</time>
      </trkpt>
      <trkpt lat="38.7972840" lon="-9.3334620">
        <ele>185.6</ele>
        <time>2019-02-10T09:49:58Z</time>
      </trkpt>
      <trkpt lat="38.7973250" lon="-9.3335170">
        <ele>185.6</ele>
        <time>2019-02-10T09:50:00Z</time>
      </trkpt>
      <trkpt lat="38.7973680" lon="-9.3335710">
        <ele>185.6</ele>
        <time>2019-02-10T09:50:02Z</time>
      </trkpt>
      <trkpt lat="38.7974120" lon="-9.3336190">
        <ele>185.6</ele>
        <time>2019-02-10T09:50:04Z</time>
      </trkpt>
      <trkpt lat="38.7974430" lon="-9.3336660">
        <ele>185.6</ele>
        <time>2019-02-10T09:50:06Z</time>
      </trkpt>
      <trkpt lat="38.7974710" lon="-9.3337260">
        <ele>185.6</ele>
        <time>2019-02-10T09:50:08Z</time>
      </trkpt>
      <trkpt lat="38.7974940" lon="-9.3337920">
        <ele>185.6</ele>
        <time>2019-02-10T09:50:10Z</time>
      </trkpt>
      <trkpt lat="38.7975190" lon="-9.3338570">
        <ele>185.6</ele>
        <time>2019-02-10T09:50:12Z</time>
      </trkpt>
      <trkpt lat="38.7975500" lon="-9.3339170">
        <ele>186.9</ele>
        <time>2019-02-10T09:50:14Z</time>
      </trkpt>
      <trkpt lat="38.7975910" lon="-9.3339780">
        <ele>186.9</ele>
        <time>2019-02-10T09:50:16Z</time>
      </trkpt>
      <trkpt lat="38.7976350" lon="-9.3340330">
        <ele>186.9</ele>
        <time>2019-02-10T09:50:18Z</time>
      </trkpt>
      <trkpt lat="38.7976810" lon="-9.3340890">
        <ele>186.9</ele>
        <time>2019-02-10T09:50:20Z</time>
      </trkpt>
      <trkpt lat="38.7977190" lon="-9.3341470">
        <ele>186.9</ele>
        <time>2019-02-10T09:50:22Z</time>
      </trkpt>
      <trkpt lat="38.7977520" lon="-9.3342070">
        <ele>186.9</ele>
        <time>2019-02-10T09:50:24Z</time>
      </trkpt>
      <trkpt lat="38.7977680" lon="-9.3342680">
        <ele>186.9</ele>
        <time>2019-02-10T09:50:26Z</time>
      </trkpt>
      <trkpt lat="38.7977930" lon="-9.3343300">
        <ele>186.9</ele>
        <time>2019-02-10T09:50:28Z</time>
      </trkpt>
      <trkpt lat="38.7978160" lon="-9.3343940">
        <ele>186.9</ele>
        <time>2019-02-10T09:50:30Z</time>
      </trkpt>
      <trkpt lat="38.7978390" lon="-9.3344560">
        <ele>186.9</ele>
        <time>2019-02-10T09:50:32Z</time>
      </trkpt>
      <trkpt lat="38.7978680" lon="-9.3345160">
        <ele>186.9</ele>
        <time>2019-02-10T09:50:34Z</time>
      </trkpt>
      <trkpt lat="38.7978910" lon="-9.3345700">
        <ele>186.9</ele>
        <time>2019-02-10T09:50:36Z</time>
      </trkpt>
      <trkpt lat="38.7979160" lon="-9.3346300">
        <ele>186.9</ele>
        <time>2019-02-10T09:50:38Z</time>
      </trkpt>
      <trkpt lat="38.7979470" lon="-9.3346890">
        <ele>186.9</ele>
        <time>2019-02-10T09:50:40Z</time>
      </trkpt>
      <trkpt lat="38.7979780" lon="-9.3347460">
        <ele>186.9</ele>
        <time>2019-02-10T09:50:42Z</time>
      </trkpt>
      <trkpt lat="38.7980240" lon="-9.3348300">
        <ele>186.9</ele>
        <time>2019-02-10T09:50:45Z</time>
      </trkpt>
      <trkpt lat="38.7980570" lon="-9.3348920">
        <ele>186.9</ele>
        <time>2019-02-10T09:50:47Z</time>
      </trkpt>
      <trkpt lat="38.7980930" lon="-9.3349520">
        <ele>186.9</ele>
        <time>2019-02-10T09:50:49Z</time>
      </trkpt>
      <trkpt lat="38.7981390" lon="-9.3350390">
        <ele>186.9</ele>
        <time>2019-02-10T09:50:52Z</time>
      </trkpt>
      <trkpt lat="38.7981670" lon="-9.3351000">
        <ele>186.9</ele>
        <time>2019-02-10T09:50:54Z</time>
      </trkpt>
      <trkpt lat="38.7981980" lon="-9.3351590">
        <ele>186.9</ele>
        <time>2019-02-10T09:50:56Z</time>
      </trkpt>
      <trkpt lat="38.7982280" lon="-9.3352220">
        <ele>185.5</ele>
        <time>2019-02-10T09:50:58Z</time>
      </trkpt>
      <trkpt lat="38.7982590" lon="-9.3352870">
        <ele>185.5</ele>
        <time>2019-02-10T09:51:00Z</time>
      </trkpt>
      <trkpt lat="38.7982750" lon="-9.3353530">
        <ele>184.2</ele>
        <time>2019-02-10T09:51:02Z</time>
      </trkpt>
      <trkpt lat="38.7982950" lon="-9.3354140">
        <ele>184.2</ele>
        <time>2019-02-10T09:51:04Z</time>
      </trkpt>
      <trkpt lat="38.7983130" lon="-9.3354760">
        <ele>184.2</ele>
        <time>2019-02-10T09:51:06Z</time>
      </trkpt>
      <trkpt lat="38.7983360" lon="-9.3355360">
        <ele>182.8</ele>
        <time>2019-02-10T09:51:08Z</time>
      </trkpt>
      <trkpt lat="38.7983690" lon="-9.3355960">
        <ele>181.6</ele>
        <time>2019-02-10T09:51:10Z</time>
      </trkpt>
      <trkpt lat="38.7984150" lon="-9.3356560">
        <ele>180.0</ele>
        <time>2019-02-10T09:51:12Z</time>
      </trkpt>
      <trkpt lat="38.7984590" lon="-9.3357430">
        <ele>180.0</ele>
        <time>2019-02-10T09:51:14Z</time>
      </trkpt>
      <trkpt lat="38.7984670" lon="-9.3358430">
        <ele>178.8</ele>
        <time>2019-02-10T09:51:17Z</time>
      </trkpt>
      <trkpt lat="38.7984540" lon="-9.3359150">
        <ele>177.4</ele>
        <time>2019-02-10T09:51:19Z</time>
      </trkpt>
      <trkpt lat="38.7984360" lon="-9.3359760">
        <ele>177.4</ele>
        <time>2019-02-10T09:51:21Z</time>
      </trkpt>
      <trkpt lat="38.7984000" lon="-9.3360190">
        <ele>175.8</ele>
        <time>2019-02-10T09:51:23Z</time>
      </trkpt>
      <trkpt lat="38.7983440" lon="-9.3360790">
        <ele>174.6</ele>
        <time>2019-02-10T09:51:26Z</time>
      </trkpt>
      <trkpt lat="38.7983030" lon="-9.3361120">
        <ele>173.4</ele>
        <time>2019-02-10T09:51:28Z</time>
      </trkpt>
      <trkpt lat="38.7982360" lon="-9.3361510">
        <ele>172.2</ele>
        <time>2019-02-10T09:51:31Z</time>
      </trkpt>
      <trkpt lat="38.7981640" lon="-9.3361880">
        <ele>170.7</ele>
        <time>2019-02-10T09:51:34Z</time>
      </trkpt>
      <trkpt lat="38.7981000" lon="-9.3362350">
        <ele>169.5</ele>
        <time>2019-02-10T09:51:37Z</time>
      </trkpt>
      <trkpt lat="38.7980540" lon="-9.3362660">
        <ele>169.5</ele>
        <time>2019-02-10T09:51:39Z</time>
      </trkpt>
      <trkpt lat="38.7980080" lon="-9.3362940">
        <ele>169.5</ele>
        <time>2019-02-10T09:51:41Z</time>
      </trkpt>
      <trkpt lat="38.7979370" lon="-9.3363330">
        <ele>168.2</ele>
        <time>2019-02-10T09:51:44Z</time>
      </trkpt>
      <trkpt lat="38.7978850" lon="-9.3363580">
        <ele>168.2</ele>
        <time>2019-02-10T09:51:46Z</time>
      </trkpt>
      <trkpt lat="38.7978390" lon="-9.3363840">
        <ele>168.2</ele>
        <time>2019-02-10T09:51:48Z</time>
      </trkpt>
      <trkpt lat="38.7977680" lon="-9.3364180">
        <ele>168.2</ele>
        <time>2019-02-10T09:51:51Z</time>
      </trkpt>
      <trkpt lat="38.7977270" lon="-9.3364380">
        <ele>168.2</ele>
        <time>2019-02-10T09:51:53Z</time>
      </trkpt>
      <trkpt lat="38.7976760" lon="-9.3364680">
        <ele>166.9</ele>
        <time>2019-02-10T09:51:56Z</time>
      </trkpt>
      <trkpt lat="38.7976190" lon="-9.3365000">
        <ele>165.4</ele>
        <time>2019-02-10T09:51:59Z</time>
      </trkpt>
      <trkpt lat="38.7975480" lon="-9.3365380">
        <ele>165.4</ele>
        <time>2019-02-10T09:52:02Z</time>
      </trkpt>
      <trkpt lat="38.7974940" lon="-9.3365590">
        <ele>165.4</ele>
        <time>2019-02-10T09:52:04Z</time>
      </trkpt>
      <trkpt lat="38.7974400" lon="-9.3365420">
        <ele>164.3</ele>
        <time>2019-02-10T09:52:06Z</time>
      </trkpt>
      <trkpt lat="38.7973890" lon="-9.3365420">
        <ele>164.3</ele>
        <time>2019-02-10T09:52:08Z</time>
      </trkpt>
      <trkpt lat="38.7973220" lon="-9.3365540">
        <ele>164.3</ele>
        <time>2019-02-10T09:52:11Z</time>
      </trkpt>
      <trkpt lat="38.7972400" lon="-9.3365660">
        <ele>163.1</ele>
        <time>2019-02-10T09:52:14Z</time>
      </trkpt>
      <trkpt lat="38.7971870" lon="-9.3365860">
        <ele>163.1</ele>
        <time>2019-02-10T09:52:16Z</time>
      </trkpt>
      <trkpt lat="38.7971300" lon="-9.3366100">
        <ele>161.6</ele>
        <time>2019-02-10T09:52:18Z</time>
      </trkpt>
      <trkpt lat="38.7970690" lon="-9.3366340">
        <ele>161.6</ele>
        <time>2019-02-10T09:52:20Z</time>
      </trkpt>
      <trkpt lat="38.7970120" lon="-9.3366510">
        <ele>161.6</ele>
        <time>2019-02-10T09:52:22Z</time>
      </trkpt>
      <trkpt lat="38.7969640" lon="-9.3366700">
        <ele>161.6</ele>
        <time>2019-02-10T09:52:24Z</time>
      </trkpt>
      <trkpt lat="38.7969180" lon="-9.3367170">
        <ele>161.6</ele>
        <time>2019-02-10T09:52:26Z</time>
      </trkpt>
      <trkpt lat="38.7968670" lon="-9.3367500">
        <ele>161.6</ele>
        <time>2019-02-10T09:52:28Z</time>
      </trkpt>
      <trkpt lat="38.7968180" lon="-9.3367800">
        <ele>161.6</ele>
        <time>2019-02-10T09:52:30Z</time>
      </trkpt>
      <trkpt lat="38.7967640" lon="-9.3368010">
        <ele>161.6</ele>
        <time>2019-02-10T09:52:32Z</time>
      </trkpt>
      <trkpt lat="38.7967080" lon="-9.3368310">
        <ele>161.6</ele>
        <time>2019-02-10T09:52:34Z</time>
      </trkpt>
      <trkpt lat="38.7966620" lon="-9.3368690">
        <ele>161.6</ele>
        <time>2019-02-10T09:52:36Z</time>
      </trkpt>
      <trkpt lat="38.7966160" lon="-9.3369170">
        <ele>161.6</ele>
        <time>2019-02-10T09:52:38Z</time>
      </trkpt>
      <trkpt lat="38.7965620" lon="-9.3369480">
        <ele>162.9</ele>
        <time>2019-02-10T09:52:40Z</time>
      </trkpt>
      <trkpt lat="38.7965000" lon="-9.3369680">
        <ele>162.9</ele>
        <time>2019-02-10T09:52:42Z</time>
      </trkpt>
      <trkpt lat="38.7964390" lon="-9.3369810">
        <ele>162.9</ele>
        <time>2019-02-10T09:52:44Z</time>
      </trkpt>
      <trkpt lat="38.7963980" lon="-9.3369930">
        <ele>162.9</ele>
        <time>2019-02-10T09:52:46Z</time>
      </trkpt>
      <trkpt lat="38.7963340" lon="-9.3370200">
        <ele>162.9</ele>
        <time>2019-02-10T09:52:49Z</time>
      </trkpt>
      <trkpt lat="38.7962600" lon="-9.3370330">
        <ele>162.9</ele>
        <time>2019-02-10T09:52:52Z</time>
      </trkpt>
      <trkpt lat="38.7962090" lon="-9.3370340">
        <ele>162.9</ele>
        <time>2019-02-10T09:52:54Z</time>
      </trkpt>
      <trkpt lat="38.7961400" lon="-9.3370690">
        <ele>162.9</ele>
        <time>2019-02-10T09:52:57Z</time>
      </trkpt>
      <trkpt lat="38.7960880" lon="-9.3371120">
        <ele>164.2</ele>
        <time>2019-02-10T09:53:00Z</time>
      </trkpt>
      <trkpt lat="38.7960320" lon="-9.3371400">
        <ele>164.2</ele>
        <time>2019-02-10T09:53:03Z</time>
      </trkpt>
      <trkpt lat="38.7959780" lon="-9.3371760">
        <ele>164.2</ele>
        <time>2019-02-10T09:53:06Z</time>
      </trkpt>
      <trkpt lat="38.7959220" lon="-9.3372100">
        <ele>164.2</ele>
        <time>2019-02-10T09:53:09Z</time>
      </trkpt>
      <trkpt lat="38.7958530" lon="-9.3372380">
        <ele>164.2</ele>
        <time>2019-02-10T09:53:12Z</time>
      </trkpt>
      <trkpt lat="38.7957960" lon="-9.3372640">
        <ele>165.5</ele>
        <time>2019-02-10T09:53:15Z</time>
      </trkpt>
      <trkpt lat="38.7957220" lon="-9.3372990">
        <ele>165.5</ele>
        <time>2019-02-10T09:53:18Z</time>
      </trkpt>
      <trkpt lat="38.7956740" lon="-9.3373120">
        <ele>165.5</ele>
        <time>2019-02-10T09:53:20Z</time>
      </trkpt>
      <trkpt lat="38.7955970" lon="-9.3373110">
        <ele>166.7</ele>
        <time>2019-02-10T09:53:23Z</time>
      </trkpt>
      <trkpt lat="38.7955330" lon="-9.3373010">
        <ele>166.7</ele>
        <time>2019-02-10T09:53:26Z</time>
      </trkpt>
      <trkpt lat="38.7954460" lon="-9.3372950">
        <ele>168.0</ele>
        <time>2019-02-10T09:53:29Z</time>
      </trkpt>
      <trkpt lat="38.7953870" lon="-9.3373070">
        <ele>168.0</ele>
        <time>2019-02-10T09:53:31Z</time>
      </trkpt>
      <trkpt lat="38.7953540" lon="-9.3373630">
        <ele>168.0</ele>
        <time>2019-02-10T09:53:33Z</time>
      </trkpt>
      <trkpt lat="38.7953460" lon="-9.3374270">
        <ele>169.3</ele>
        <time>2019-02-10T09:53:35Z</time>
      </trkpt>
      <trkpt lat="38.7953460" lon="-9.3374890">
        <ele>169.3</ele>
        <time>2019-02-10T09:53:37Z</time>
      </trkpt>
      <trkpt lat="38.7953250" lon="-9.3375760">
        <ele>169.3</ele>
        <time>2019-02-10T09:53:40Z</time>
      </trkpt>
      <trkpt lat="38.7952770" lon="-9.3376520">
        <ele>170.5</ele>
        <time>2019-02-10T09:53:43Z</time>
      </trkpt>
      <trkpt lat="38.7952380" lon="-9.3377020">
        <ele>170.5</ele>
        <time>2019-02-10T09:53:45Z</time>
      </trkpt>
      <trkpt lat="38.7952150" lon="-9.3377640">
        <ele>170.5</ele>
        <time>2019-02-10T09:53:47Z</time>
      </trkpt>
      <trkpt lat="38.7952080" lon="-9.3378270">
        <ele>170.5</ele>
        <time>2019-02-10T09:53:49Z</time>
      </trkpt>
      <trkpt lat="38.7952280" lon="-9.3379180">
        <ele>170.5</ele>
        <time>2019-02-10T09:53:52Z</time>
      </trkpt>
      <trkpt lat="38.7952460" lon="-9.3379760">
        <ele>170.5</ele>
        <time>2019-02-10T09:53:54Z</time>
      </trkpt>
      <trkpt lat="38.7952950" lon="-9.3380600">
        <ele>170.5</ele>
        <time>2019-02-10T09:53:57Z</time>
      </trkpt>
      <trkpt lat="38.7953180" lon="-9.3381290">
        <ele>170.5</ele>
        <time>2019-02-10T09:53:59Z</time>
      </trkpt>
      <trkpt lat="38.7953310" lon="-9.3381980">
        <ele>170.5</ele>
        <time>2019-02-10T09:54:01Z</time>
      </trkpt>
      <trkpt lat="38.7953250" lon="-9.3382720">
        <ele>170.5</ele>
        <time>2019-02-10T09:54:03Z</time>
      </trkpt>
      <trkpt lat="38.7953150" lon="-9.3383420">
        <ele>170.5</ele>
        <time>2019-02-10T09:54:05Z</time>
      </trkpt>
      <trkpt lat="38.7953150" lon="-9.3384100">
        <ele>170.5</ele>
        <time>2019-02-10T09:54:07Z</time>
      </trkpt>
      <trkpt lat="38.7953020" lon="-9.3385020">
        <ele>169.4</ele>
        <time>2019-02-10T09:54:10Z</time>
      </trkpt>
      <trkpt lat="38.7952870" lon="-9.3385680">
        <ele>169.4</ele>
        <time>2019-02-10T09:54:12Z</time>
      </trkpt>
      <trkpt lat="38.7952790" lon="-9.3386300">
        <ele>169.4</ele>
        <time>2019-02-10T09:54:14Z</time>
      </trkpt>
      <trkpt lat="38.7953000" lon="-9.3387190">
        <ele>169.4</ele>
        <time>2019-02-10T09:54:17Z</time>
      </trkpt>
      <trkpt lat="38.7953310" lon="-9.3387780">
        <ele>169.4</ele>
        <time>2019-02-10T09:54:20Z</time>
      </trkpt>
      <trkpt lat="38.7953770" lon="-9.3388500">
        <ele>169.4</ele>
        <time>2019-02-10T09:54:23Z</time>
      </trkpt>
      <trkpt lat="38.7954150" lon="-9.3389160">
        <ele>169.4</ele>
        <time>2019-02-10T09:54:26Z</time>
      </trkpt>
      <trkpt lat="38.7954150" lon="-9.3389970">
        <ele>169.4</ele>
        <time>2019-02-10T09:54:29Z</time>
      </trkpt>
      <trkpt lat="38.7953540" lon="-9.3390600">
        <ele>169.4</ele>
        <time>2019-02-10T09:54:32Z</time>
      </trkpt>
      <trkpt lat="38.7953080" lon="-9.3391070">
        <ele>167.8</ele>
        <time>2019-02-10T09:54:34Z</time>
      </trkpt>
      <trkpt lat="38.7952560" lon="-9.3391510">
        <ele>166.4</ele>
        <time>2019-02-10T09:54:36Z</time>
      </trkpt>
      <trkpt lat="38.7952150" lon="-9.3391920">
        <ele>166.4</ele>
        <time>2019-02-10T09:54:38Z</time>
      </trkpt>
      <trkpt lat="38.7951740" lon="-9.3392250">
        <ele>165.2</ele>
        <time>2019-02-10T09:54:40Z</time>
      </trkpt>
      <trkpt lat="38.7951280" lon="-9.3392950">
        <ele>165.2</ele>
        <time>2019-02-10T09:54:43Z</time>
      </trkpt>
      <trkpt lat="38.7950820" lon="-9.3393570">
        <ele>166.5</ele>
        <time>2019-02-10T09:54:46Z</time>
      </trkpt>
      <trkpt lat="38.7950440" lon="-9.3394140">
        <ele>167.7</ele>
        <time>2019-02-10T09:54:49Z</time>
      </trkpt>
      <trkpt lat="38.7950050" lon="-9.3394800">
        <ele>167.7</ele>
        <time>2019-02-10T09:54:52Z</time>
      </trkpt>
      <trkpt lat="38.7949950" lon="-9.3395470">
        <ele>167.7</ele>
        <time>2019-02-10T09:54:54Z</time>
      </trkpt>
      <trkpt lat="38.7949950" lon="-9.3396360">
        <ele>168.9</ele>
        <time>2019-02-10T09:54:57Z</time>
      </trkpt>
      <trkpt lat="38.7950180" lon="-9.3397020">
        <ele>168.9</ele>
        <time>2019-02-10T09:54:59Z</time>
      </trkpt>
      <trkpt lat="38.7950410" lon="-9.3397680">
        <ele>168.9</ele>
        <time>2019-02-10T09:55:01Z</time>
      </trkpt>
      <trkpt lat="38.7950520" lon="-9.3398230">
        <ele>170.1</ele>
        <time>2019-02-10T09:55:03Z</time>
      </trkpt>
      <trkpt lat="38.7950280" lon="-9.3399000">
        <ele>171.3</ele>
        <time>2019-02-10T09:55:06Z</time>
      </trkpt>
      <trkpt lat="38.7949950" lon="-9.3399750">
        <ele>171.3</ele>
        <time>2019-02-10T09:55:09Z</time>
      </trkpt>
      <trkpt lat="38.7949670" lon="-9.3400390">
        <ele>171.3</ele>
        <time>2019-02-10T09:55:12Z</time>
      </trkpt>
      <trkpt lat="38.7949590" lon="-9.3401230">
        <ele>171.3</ele>
        <time>2019-02-10T09:55:15Z</time>
      </trkpt>
      <trkpt lat="38.7949750" lon="-9.3402210">
        <ele>171.3</ele>
        <time>2019-02-10T09:55:18Z</time>
      </trkpt>
      <trkpt lat="38.7949720" lon="-9.3402930">
        <ele>171.3</ele>
        <time>2019-02-10T09:55:20Z</time>
      </trkpt>
      <trkpt lat="38.7949670" lon="-9.3403620">
        <ele>171.3</ele>
        <time>2019-02-10T09:55:22Z</time>
      </trkpt>
      <trkpt lat="38.7949640" lon="-9.3404600">
        <ele>172.6</ele>
        <time>2019-02-10T09:55:25Z</time>
      </trkpt>
      <trkpt lat="38.7949490" lon="-9.3405180">
        <ele>172.6</ele>
        <time>2019-02-10T09:55:27Z</time>
      </trkpt>
      <trkpt lat="38.7948980" lon="-9.3406120">
        <ele>174.0</ele>
        <time>2019-02-10T09:55:30Z</time>
      </trkpt>
      <trkpt lat="38.7948470" lon="-9.3406690">
        <ele>175.4</ele>
        <time>2019-02-10T09:55:33Z</time>
      </trkpt>
      <trkpt lat="38.7948110" lon="-9.3407120">
        <ele>175.4</ele>
        <time>2019-02-10T09:55:35Z</time>
      </trkpt>
      <trkpt lat="38.7947720" lon="-9.3407960">
        <ele>176.8</ele>
        <time>2019-02-10T09:55:38Z</time>
      </trkpt>
      <trkpt lat="38.7947420" lon="-9.3408560">
        <ele>176.8</ele>
        <time>2019-02-10T09:55:40Z</time>
      </trkpt>
      <trkpt lat="38.7947030" lon="-9.3409080">
        <ele>178.3</ele>
        <time>2019-02-10T09:55:42Z</time>
      </trkpt>
      <trkpt lat="38.7946600" lon="-9.3409680">
        <ele>178.3</ele>
        <time>2019-02-10T09:55:44Z</time>
      </trkpt>
      <trkpt lat="38.7946210" lon="-9.3410310">
        <ele>179.5</ele>
        <time>2019-02-10T09:55:46Z</time>
      </trkpt>
      <trkpt lat="38.7945700" lon="-9.3410820">
        <ele>179.5</ele>
        <time>2019-02-10T09:55:48Z</time>
      </trkpt>
      <trkpt lat="38.7945220" lon="-9.3411350">
        <ele>179.5</ele>
        <time>2019-02-10T09:55:50Z</time>
      </trkpt>
      <trkpt lat="38.7944810" lon="-9.3411910">
        <ele>179.5</ele>
        <time>2019-02-10T09:55:52Z</time>
      </trkpt>
      <trkpt lat="38.7944370" lon="-9.3412510">
        <ele>179.5</ele>
        <time>2019-02-10T09:55:54Z</time>
      </trkpt>
      <trkpt lat="38.7943960" lon="-9.3413110">
        <ele>179.5</ele>
        <time>2019-02-10T09:55:56Z</time>
      </trkpt>
      <trkpt lat="38.7943580" lon="-9.3413650">
        <ele>179.5</ele>
        <time>2019-02-10T09:55:58Z</time>
      </trkpt>
      <trkpt lat="38.7943140" lon="-9.3414240">
        <ele>179.5</ele>
        <time>2019-02-10T09:56:00Z</time>
      </trkpt>
      <trkpt lat="38.7942710" lon="-9.3414810">
        <ele>179.5</ele>
        <time>2019-02-10T09:56:02Z</time>
      </trkpt>
      <trkpt lat="38.7942250" lon="-9.3415190">
        <ele>179.5</ele>
        <time>2019-02-10T09:56:04Z</time>
      </trkpt>
      <trkpt lat="38.7941860" lon="-9.3415700">
        <ele>179.5</ele>
        <time>2019-02-10T09:56:06Z</time>
      </trkpt>
      <trkpt lat="38.7941480" lon="-9.3416280">
        <ele>179.5</ele>
        <time>2019-02-10T09:56:08Z</time>
      </trkpt>
      <trkpt lat="38.7941090" lon="-9.3416860">
        <ele>179.5</ele>
        <time>2019-02-10T09:56:10Z</time>
      </trkpt>
      <trkpt lat="38.7940840" lon="-9.3417480">
        <ele>179.5</ele>
        <time>2019-02-10T09:56:12Z</time>
      </trkpt>
      <trkpt lat="38.7940450" lon="-9.3418140">
        <ele>179.5</ele>
        <time>2019-02-10T09:56:14Z</time>
      </trkpt>
      <trkpt lat="38.7940150" lon="-9.3418750">
        <ele>179.5</ele>
        <time>2019-02-10T09:56:16Z</time>
      </trkpt>
      <trkpt lat="38.7939840" lon="-9.3419390">
        <ele>179.5</ele>
        <time>2019-02-10T09:56:18Z</time>
      </trkpt>
      <trkpt lat="38.7939560" lon="-9.3420060">
        <ele>179.5</ele>
        <time>2019-02-10T09:56:20Z</time>
      </trkpt>
      <trkpt lat="38.7939250" lon="-9.3420740">
        <ele>179.5</ele>
        <time>2019-02-10T09:56:22Z</time>
      </trkpt>
      <trkpt lat="38.7939000" lon="-9.3421380">
        <ele>179.5</ele>
        <time>2019-02-10T09:56:24Z</time>
      </trkpt>
      <trkpt lat="38.7938740" lon="-9.3422030">
        <ele>179.5</ele>
        <time>2019-02-10T09:56:26Z</time>
      </trkpt>
      <trkpt lat="38.7938510" lon="-9.3422610">
        <ele>179.5</ele>
        <time>2019-02-10T09:56:28Z</time>
      </trkpt>
      <trkpt lat="38.7938280" lon="-9.3423230">
        <ele>179.5</ele>
        <time>2019-02-10T09:56:30Z</time>
      </trkpt>
      <trkpt lat="38.7937840" lon="-9.3424010">
        <ele>179.5</ele>
        <time>2019-02-10T09:56:33Z</time>
      </trkpt>
      <trkpt lat="38.7937590" lon="-9.3424550">
        <ele>179.5</ele>
        <time>2019-02-10T09:56:35Z</time>
      </trkpt>
      <trkpt lat="38.7937360" lon="-9.3425160">
        <ele>179.5</ele>
        <time>2019-02-10T09:56:37Z</time>
      </trkpt>
      <trkpt lat="38.7937130" lon="-9.3425780">
        <ele>179.5</ele>
        <time>2019-02-10T09:56:39Z</time>
      </trkpt>
      <trkpt lat="38.7936740" lon="-9.3426650">
        <ele>179.5</ele>
        <time>2019-02-10T09:56:42Z</time>
      </trkpt>
      <trkpt lat="38.7936490" lon="-9.3427230">
        <ele>179.5</ele>
        <time>2019-02-10T09:56:44Z</time>
      </trkpt>
      <trkpt lat="38.7936200" lon="-9.3427870">
        <ele>179.5</ele>
        <time>2019-02-10T09:56:46Z</time>
      </trkpt>
      <trkpt lat="38.7935970" lon="-9.3428490">
        <ele>179.5</ele>
        <time>2019-02-10T09:56:48Z</time>
      </trkpt>
      <trkpt lat="38.7935740" lon="-9.3429070">
        <ele>179.5</ele>
        <time>2019-02-10T09:56:50Z</time>
      </trkpt>
      <trkpt lat="38.7935280" lon="-9.3429830">
        <ele>178.4</ele>
        <time>2019-02-10T09:56:53Z</time>
      </trkpt>
      <trkpt lat="38.7935080" lon="-9.3430370">
        <ele>178.4</ele>
        <time>2019-02-10T09:56:55Z</time>
      </trkpt>
      <trkpt lat="38.7935000" lon="-9.3431160">
        <ele>178.4</ele>
        <time>2019-02-10T09:56:58Z</time>
      </trkpt>
      <trkpt lat="38.7934850" lon="-9.3431960">
        <ele>179.7</ele>
        <time>2019-02-10T09:57:01Z</time>
      </trkpt>
      <trkpt lat="38.7934690" lon="-9.3432960">
        <ele>179.7</ele>
        <time>2019-02-10T09:57:04Z</time>
      </trkpt>
      <trkpt lat="38.7934640" lon="-9.3433700">
        <ele>179.7</ele>
        <time>2019-02-10T09:57:06Z</time>
      </trkpt>
      <trkpt lat="38.7934640" lon="-9.3434440">
        <ele>179.7</ele>
        <time>2019-02-10T09:57:08Z</time>
      </trkpt>
      <trkpt lat="38.7934690" lon="-9.3435180">
        <ele>179.7</ele>
        <time>2019-02-10T09:57:10Z</time>
      </trkpt>
      <trkpt lat="38.7934690" lon="-9.3435890">
        <ele>179.7</ele>
        <time>2019-02-10T09:57:12Z</time>
      </trkpt>
      <trkpt lat="38.7934720" lon="-9.3436560">
        <ele>179.7</ele>
        <time>2019-02-10T09:57:14Z</time>
      </trkpt>
      <trkpt lat="38.7934800" lon="-9.3437200">
        <ele>179.7</ele>
        <time>2019-02-10T09:57:16Z</time>
      </trkpt>
      <trkpt lat="38.7934950" lon="-9.3438160">
        <ele>179.7</ele>
        <time>2019-02-10T09:57:19Z</time>
      </trkpt>
      <trkpt lat="38.7935100" lon="-9.3438800">
        <ele>179.7</ele>
        <time>2019-02-10T09:57:21Z</time>
      </trkpt>
      <trkpt lat="38.7935160" lon="-9.3439440">
        <ele>179.7</ele>
        <time>2019-02-10T09:57:23Z</time>
      </trkpt>
      <trkpt lat="38.7934770" lon="-9.3440080">
        <ele>179.7</ele>
        <time>2019-02-10T09:57:26Z</time>
      </trkpt>
      <trkpt lat="38.7934160" lon="-9.3440510">
        <ele>179.7</ele>
        <time>2019-02-10T09:57:29Z</time>
      </trkpt>
      <trkpt lat="38.7933490" lon="-9.3440880">
        <ele>179.7</ele>
        <time>2019-02-10T09:57:32Z</time>
      </trkpt>
      <trkpt lat="38.7932850" lon="-9.3441190">
        <ele>180.9</ele>
        <time>2019-02-10T09:57:35Z</time>
      </trkpt>
      <trkpt lat="38.7932130" lon="-9.3441540">
        <ele>180.9</ele>
        <time>2019-02-10T09:57:38Z</time>
      </trkpt>
      <trkpt lat="38.7931620" lon="-9.3441740">
        <ele>180.9</ele>
        <time>2019-02-10T09:57:40Z</time>
      </trkpt>
      <trkpt lat="38.7930880" lon="-9.3442050">
        <ele>180.9</ele>
        <time>2019-02-10T09:57:43Z</time>
      </trkpt>
      <trkpt lat="38.7930370" lon="-9.3442260">
        <ele>180.9</ele>
        <time>2019-02-10T09:57:45Z</time>
      </trkpt>
      <trkpt lat="38.7929730" lon="-9.3442500">
        <ele>182.1</ele>
        <time>2019-02-10T09:57:48Z</time>
      </trkpt>
      <trkpt lat="38.7929010" lon="-9.3442750">
        <ele>182.1</ele>
        <time>2019-02-10T09:57:51Z</time>
      </trkpt>
      <trkpt lat="38.7928470" lon="-9.3442920">
        <ele>182.1</ele>
        <time>2019-02-10T09:57:53Z</time>
      </trkpt>
      <trkpt lat="38.7927880" lon="-9.3443060">
        <ele>182.1</ele>
        <time>2019-02-10T09:57:55Z</time>
      </trkpt>
      <trkpt lat="38.7927320" lon="-9.3443210">
        <ele>182.1</ele>
        <time>2019-02-10T09:57:57Z</time>
      </trkpt>
      <trkpt lat="38.7926860" lon="-9.3443520">
        <ele>182.1</ele>
        <time>2019-02-10T09:57:59Z</time>
      </trkpt>
      <trkpt lat="38.7926400" lon="-9.3443890">
        <ele>182.1</ele>
        <time>2019-02-10T09:58:01Z</time>
      </trkpt>
      <trkpt lat="38.7925940" lon="-9.3444290">
        <ele>182.1</ele>
        <time>2019-02-10T09:58:03Z</time>
      </trkpt>
      <trkpt lat="38.7925530" lon="-9.3444740">
        <ele>182.1</ele>
        <time>2019-02-10T09:58:05Z</time>
      </trkpt>
      <trkpt lat="38.7925070" lon="-9.3445200">
        <ele>180.8</ele>
        <time>2019-02-10T09:58:07Z</time>
      </trkpt>
      <trkpt lat="38.7924610" lon="-9.3445610">
        <ele>180.8</ele>
        <time>2019-02-10T09:58:09Z</time>
      </trkpt>
      <trkpt lat="38.7924150" lon="-9.3446010">
        <ele>180.8</ele>
        <time>2019-02-10T09:58:11Z</time>
      </trkpt>
      <trkpt lat="38.7923740" lon="-9.3446400">
        <ele>180.8</ele>
        <time>2019-02-10T09:58:13Z</time>
      </trkpt>
      <trkpt lat="38.7923120" lon="-9.3446980">
        <ele>180.8</ele>
        <time>2019-02-10T09:58:16Z</time>
      </trkpt>
      <trkpt lat="38.7922660" lon="-9.3447410">
        <ele>180.8</ele>
        <time>2019-02-10T09:58:18Z</time>
      </trkpt>
      <trkpt lat="38.7922280" lon="-9.3447810">
        <ele>180.8</ele>
        <time>2019-02-10T09:58:20Z</time>
      </trkpt>
      <trkpt lat="38.7921790" lon="-9.3448390">
        <ele>180.8</ele>
        <time>2019-02-10T09:58:23Z</time>
      </trkpt>
      <trkpt lat="38.7921230" lon="-9.3449050">
        <ele>180.8</ele>
        <time>2019-02-10T09:58:26Z</time>
      </trkpt>
      <trkpt lat="38.7920790" lon="-9.3449500">
        <ele>180.8</ele>
        <time>2019-02-10T09:58:28Z</time>
      </trkpt>
      <trkpt lat="38.7920330" lon="-9.3449950">
        <ele>182.1</ele>
        <time>2019-02-10T09:58:30Z</time>
      </trkpt>
      <trkpt lat="38.7919870" lon="-9.3450420">
        <ele>182.1</ele>
        <time>2019-02-10T09:58:32Z</time>
      </trkpt>
      <trkpt lat="38.7919510" lon="-9.3450820">
        <ele>182.1</ele>
        <time>2019-02-10T09:58:34Z</time>
      </trkpt>
      <trkpt lat="38.7918820" lon="-9.3451520">
        <ele>182.1</ele>
        <time>2019-02-10T09:58:37Z</time>
      </trkpt>
      <trkpt lat="38.7918440" lon="-9.3451940">
        <ele>182.1</ele>
        <time>2019-02-10T09:58:39Z</time>
      </trkpt>
      <trkpt lat="38.7918050" lon="-9.3452460">
        <ele>182.1</ele>
        <time>2019-02-10T09:58:41Z</time>
      </trkpt>
      <trkpt lat="38.7917750" lon="-9.3453000">
        <ele>182.1</ele>
        <time>2019-02-10T09:58:43Z</time>
      </trkpt>
      <trkpt lat="38.7917410" lon="-9.3453600">
        <ele>182.1</ele>
        <time>2019-02-10T09:58:45Z</time>
      </trkpt>
      <trkpt lat="38.7917110" lon="-9.3454180">
        <ele>182.1</ele>
        <time>2019-02-10T09:58:47Z</time>
      </trkpt>
      <trkpt lat="38.7916800" lon="-9.3454730">
        <ele>182.1</ele>
        <time>2019-02-10T09:58:49Z</time>
      </trkpt>
      <trkpt lat="38.7916440" lon="-9.3455260">
        <ele>182.1</ele>
        <time>2019-02-10T09:58:51Z</time>
      </trkpt>
      <trkpt lat="38.7916060" lon="-9.3456030">
        <ele>182.1</ele>
        <time>2019-02-10T09:58:54Z</time>
      </trkpt>
      <trkpt lat="38.7915490" lon="-9.3456680">
        <ele>182.1</ele>
        <time>2019-02-10T09:58:57Z</time>
      </trkpt>
      <trkpt lat="38.7914960" lon="-9.3456970">
        <ele>182.1</ele>
        <time>2019-02-10T09:58:59Z</time>
      </trkpt>
      <trkpt lat="38.7914470" lon="-9.3457200">
        <ele>182.1</ele>
        <time>2019-02-10T09:59:01Z</time>
      </trkpt>
      <trkpt lat="38.7913860" lon="-9.3457410">
        <ele>182.1</ele>
        <time>2019-02-10T09:59:04Z</time>
      </trkpt>
      <trkpt lat="38.7913240" lon="-9.3457690">
        <ele>182.1</ele>
        <time>2019-02-10T09:59:07Z</time>
      </trkpt>
      <trkpt lat="38.7912760" lon="-9.3457920">
        <ele>183.3</ele>
        <time>2019-02-10T09:59:09Z</time>
      </trkpt>
      <trkpt lat="38.7912010" lon="-9.3457930">
        <ele>183.3</ele>
        <time>2019-02-10T09:59:12Z</time>
      </trkpt>
      <trkpt lat="38.7911530" lon="-9.3458080">
        <ele>183.3</ele>
        <time>2019-02-10T09:59:14Z</time>
      </trkpt>
      <trkpt lat="38.7911070" lon="-9.3458660">
        <ele>183.3</ele>
        <time>2019-02-10T09:59:17Z</time>
      </trkpt>
      <trkpt lat="38.7910760" lon="-9.3459440">
        <ele>183.3</ele>
        <time>2019-02-10T09:59:20Z</time>
      </trkpt>
      <trkpt lat="38.7910530" lon="-9.3460200">
        <ele>183.3</ele>
        <time>2019-02-10T09:59:23Z</time>
      </trkpt>
      <trkpt lat="38.7911070" lon="-9.3460540">
        <ele>183.3</ele>
        <time>2019-02-10T09:59:27Z</time>
      </trkpt>
      <trkpt lat="38.7911680" lon="-9.3460760">
        <ele>183.3</ele>
        <time>2019-02-10T09:59:30Z</time>
      </trkpt>
      <trkpt lat="38.7912370" lon="-9.3461110">
        <ele>181.9</ele>
        <time>2019-02-10T09:59:33Z</time>
      </trkpt>
      <trkpt lat="38.7912830" lon="-9.3461460">
        <ele>181.9</ele>
        <time>2019-02-10T09:59:35Z</time>
      </trkpt>
      <trkpt lat="38.7913240" lon="-9.3461840">
        <ele>181.9</ele>
        <time>2019-02-10T09:59:37Z</time>
      </trkpt>
      <trkpt lat="38.7913700" lon="-9.3462480">
        <ele>181.9</ele>
        <time>2019-02-10T09:59:40Z</time>
      </trkpt>
      <trkpt lat="38.7914110" lon="-9.3462970">
        <ele>181.9</ele>
        <time>2019-02-10T09:59:42Z</time>
      </trkpt>
      <trkpt lat="38.7914550" lon="-9.3463220">
        <ele>181.9</ele>
        <time>2019-02-10T09:59:44Z</time>
      </trkpt>
      <trkpt lat="38.7915010" lon="-9.3463560">
        <ele>181.9</ele>
        <time>2019-02-10T09:59:46Z</time>
      </trkpt>
      <trkpt lat="38.7915720" lon="-9.3464070">
        <ele>181.9</ele>
        <time>2019-02-10T09:59:49Z</time>
      </trkpt>
      <trkpt lat="38.7916260" lon="-9.3464350">
        <ele>181.9</ele>
        <time>2019-02-10T09:59:51Z</time>
      </trkpt>
      <trkpt lat="38.7916800" lon="-9.3464560">
        <ele>181.9</ele>
        <time>2019-02-10T09:59:53Z</time>
      </trkpt>
      <trkpt lat="38.7917410" lon="-9.3464720">
        <ele>181.9</ele>
        <time>2019-02-10T09:59:55Z</time>
      </trkpt>
      <trkpt lat="38.7917900" lon="-9.3464850">
        <ele>181.9</ele>
        <time>2019-02-10T09:59:57Z</time>
      </trkpt>
      <trkpt lat="38.7918390" lon="-9.3464950">
        <ele>181.9</ele>
        <time>2019-02-10T09:59:59Z</time>
      </trkpt>
      <trkpt lat="38.7918920" lon="-9.3465090">
        <ele>181.9</ele>
        <time>2019-02-10T10:00:01Z</time>
      </trkpt>
      <trkpt lat="38.7919460" lon="-9.3465160">
        <ele>181.9</ele>
        <time>2019-02-10T10:00:03Z</time>
      </trkpt>
      <trkpt lat="38.7919920" lon="-9.3465180">
        <ele>181.9</ele>
        <time>2019-02-10T10:00:05Z</time>
      </trkpt>
      <trkpt lat="38.7920610" lon="-9.3465240">
        <ele>181.9</ele>
        <time>2019-02-10T10:00:08Z</time>
      </trkpt>
      <trkpt lat="38.7921410" lon="-9.3465400">
        <ele>181.9</ele>
        <time>2019-02-10T10:00:11Z</time>
      </trkpt>
      <trkpt lat="38.7921970" lon="-9.3465540">
        <ele>180.6</ele>
        <time>2019-02-10T10:00:13Z</time>
      </trkpt>
      <trkpt lat="38.7922480" lon="-9.3465660">
        <ele>180.6</ele>
        <time>2019-02-10T10:00:15Z</time>
      </trkpt>
      <trkpt lat="38.7923250" lon="-9.3465860">
        <ele>180.6</ele>
        <time>2019-02-10T10:00:18Z</time>
      </trkpt>
      <trkpt lat="38.7923740" lon="-9.3466000">
        <ele>179.4</ele>
        <time>2019-02-10T10:00:20Z</time>
      </trkpt>
      <trkpt lat="38.7924220" lon="-9.3466130">
        <ele>179.4</ele>
        <time>2019-02-10T10:00:22Z</time>
      </trkpt>
      <trkpt lat="38.7925040" lon="-9.3466300">
        <ele>179.4</ele>
        <time>2019-02-10T10:00:25Z</time>
      </trkpt>
      <trkpt lat="38.7925450" lon="-9.3466340">
        <ele>179.4</ele>
        <time>2019-02-10T10:00:27Z</time>
      </trkpt>
      <trkpt lat="38.7926070" lon="-9.3466090">
        <ele>179.4</ele>
        <time>2019-02-10T10:00:30Z</time>
      </trkpt>
      <trkpt lat="38.7926530" lon="-9.3465800">
        <ele>179.4</ele>
        <time>2019-02-10T10:00:32Z</time>
      </trkpt>
      <trkpt lat="38.7927220" lon="-9.3465520">
        <ele>179.4</ele>
        <time>2019-02-10T10:00:35Z</time>
      </trkpt>
      <trkpt lat="38.7927780" lon="-9.3465410">
        <ele>179.4</ele>
        <time>2019-02-10T10:00:37Z</time>
      </trkpt>
      <trkpt lat="38.7928350" lon="-9.3465520">
        <ele>179.4</ele>
        <time>2019-02-10T10:00:39Z</time>
      </trkpt>
      <trkpt lat="38.7928860" lon="-9.3465730">
        <ele>179.4</ele>
        <time>2019-02-10T10:00:41Z</time>
      </trkpt>
      <trkpt lat="38.7929320" lon="-9.3465980">
        <ele>179.4</ele>
        <time>2019-02-10T10:00:43Z</time>
      </trkpt>
      <trkpt lat="38.7929750" lon="-9.3466410">
        <ele>179.4</ele>
        <time>2019-02-10T10:00:45Z</time>
      </trkpt>
      <trkpt lat="38.7930140" lon="-9.3466890">
        <ele>179.4</ele>
        <time>2019-02-10T10:00:47Z</time>
      </trkpt>
      <trkpt lat="38.7930650" lon="-9.3467400">
        <ele>179.4</ele>
        <time>2019-02-10T10:00:49Z</time>
      </trkpt>
      <trkpt lat="38.7931110" lon="-9.3467940">
        <ele>179.4</ele>
        <time>2019-02-10T10:00:51Z</time>
      </trkpt>
      <trkpt lat="38.7931440" lon="-9.3468510">
        <ele>179.4</ele>
        <time>2019-02-10T10:00:53Z</time>
      </trkpt>
      <trkpt lat="38.7931700" lon="-9.3469150">
        <ele>179.4</ele>
        <time>2019-02-10T10:00:55Z</time>
      </trkpt>
      <trkpt lat="38.7932010" lon="-9.3469700">
        <ele>179.4</ele>
        <time>2019-02-10T10:00:57Z</time>
      </trkpt>
      <trkpt lat="38.7932390" lon="-9.3470220">
        <ele>179.4</ele>
        <time>2019-02-10T10:00:59Z</time>
      </trkpt>
      <trkpt lat="38.7932750" lon="-9.3470710">
        <ele>179.4</ele>
        <time>2019-02-10T10:01:01Z</time>
      </trkpt>
      <trkpt lat="38.7933160" lon="-9.3471150">
        <ele>179.4</ele>
        <time>2019-02-10T10:01:03Z</time>
      </trkpt>
      <trkpt lat="38.7933620" lon="-9.3471550">
        <ele>179.4</ele>
        <time>2019-02-10T10:01:05Z</time>
      </trkpt>
      <trkpt lat="38.7934160" lon="-9.3471910">
        <ele>179.4</ele>
        <time>2019-02-10T10:01:07Z</time>
      </trkpt>
      <trkpt lat="38.7935000" lon="-9.3472250">
        <ele>179.4</ele>
        <time>2019-02-10T10:01:10Z</time>
      </trkpt>
      <trkpt lat="38.7935510" lon="-9.3472470">
        <ele>179.4</ele>
        <time>2019-02-10T10:01:12Z</time>
      </trkpt>
      <trkpt lat="38.7935970" lon="-9.3472680">
        <ele>180.5</ele>
        <time>2019-02-10T10:01:14Z</time>
      </trkpt>
      <trkpt lat="38.7936670" lon="-9.3472990">
        <ele>180.5</ele>
        <time>2019-02-10T10:01:17Z</time>
      </trkpt>
      <trkpt lat="38.7937430" lon="-9.3473410">
        <ele>180.5</ele>
        <time>2019-02-10T10:01:20Z</time>
      </trkpt>
      <trkpt lat="38.7938000" lon="-9.3473680">
        <ele>180.5</ele>
        <time>2019-02-10T10:01:22Z</time>
      </trkpt>
      <trkpt lat="38.7938460" lon="-9.3473820">
        <ele>180.5</ele>
        <time>2019-02-10T10:01:24Z</time>
      </trkpt>
      <trkpt lat="38.7939150" lon="-9.3474030">
        <ele>180.5</ele>
        <time>2019-02-10T10:01:27Z</time>
      </trkpt>
      <trkpt lat="38.7939480" lon="-9.3474160">
        <ele>180.5</ele>
        <time>2019-02-10T10:01:29Z</time>
      </trkpt>
      <trkpt lat="38.7940020" lon="-9.3474700">
        <ele>180.5</ele>
        <time>2019-02-10T10:01:33Z</time>
      </trkpt>
      <trkpt lat="38.7940860" lon="-9.3475200">
        <ele>180.5</ele>
        <time>2019-02-10T10:01:36Z</time>
      </trkpt>
      <trkpt lat="38.7941320" lon="-9.3475510">
        <ele>180.5</ele>
        <time>2019-02-10T10:01:38Z</time>
      </trkpt>
      <trkpt lat="38.7941730" lon="-9.3475800">
        <ele>180.5</ele>
        <time>2019-02-10T10:01:40Z</time>
      </trkpt>
      <trkpt lat="38.7942250" lon="-9.3476040">
        <ele>181.7</ele>
        <time>2019-02-10T10:01:42Z</time>
      </trkpt>
      <trkpt lat="38.7942810" lon="-9.3476220">
        <ele>181.7</ele>
        <time>2019-02-10T10:01:45Z</time>
      </trkpt>
      <trkpt lat="38.7943350" lon="-9.3476290">
        <ele>181.7</ele>
        <time>2019-02-10T10:01:48Z</time>
      </trkpt>
      <trkpt lat="38.7943960" lon="-9.3476630">
        <ele>181.7</ele>
        <time>2019-02-10T10:01:51Z</time>
      </trkpt>
      <trkpt lat="38.7944370" lon="-9.3476990">
        <ele>180.4</ele>
        <time>2019-02-10T10:01:53Z</time>
      </trkpt>
      <trkpt lat="38.7944990" lon="-9.3477480">
        <ele>180.4</ele>
        <time>2019-02-10T10:01:56Z</time>
      </trkpt>
      <trkpt lat="38.7945520" lon="-9.3477850">
        <ele>180.4</ele>
        <time>2019-02-10T10:01:59Z</time>
      </trkpt>
      <trkpt lat="38.7946010" lon="-9.3478250">
        <ele>180.4</ele>
        <time>2019-02-10T10:02:02Z</time>
      </trkpt>
      <trkpt lat="38.7946550" lon="-9.3478750">
        <ele>180.4</ele>
        <time>2019-02-10T10:02:05Z</time>
      </trkpt>
      <trkpt lat="38.7947240" lon="-9.3479410">
        <ele>181.6</ele>
        <time>2019-02-10T10:02:08Z</time>
      </trkpt>
      <trkpt lat="38.7947650" lon="-9.3479860">
        <ele>181.6</ele>
        <time>2019-02-10T10:02:10Z</time>
      </trkpt>
      <trkpt lat="38.7948080" lon="-9.3480300">
        <ele>181.6</ele>
        <time>2019-02-10T10:02:12Z</time>
      </trkpt>
      <trkpt lat="38.7948620" lon="-9.3480810">
        <ele>182.8</ele>
        <time>2019-02-10T10:02:14Z</time>
      </trkpt>
      <trkpt lat="38.7949180" lon="-9.3481270">
        <ele>182.8</ele>
        <time>2019-02-10T10:02:16Z</time>
      </trkpt>
      <trkpt lat="38.7949590" lon="-9.3481630">
        <ele>182.8</ele>
        <time>2019-02-10T10:02:18Z</time>
      </trkpt>
      <trkpt lat="38.7950110" lon="-9.3482000">
        <ele>182.8</ele>
        <time>2019-02-10T10:02:20Z</time>
      </trkpt>
      <trkpt lat="38.7950620" lon="-9.3482440">
        <ele>182.8</ele>
        <time>2019-02-10T10:02:23Z</time>
      </trkpt>
      <trkpt lat="38.7951310" lon="-9.3483020">
        <ele>182.8</ele>
        <time>2019-02-10T10:02:26Z</time>
      </trkpt>
      <trkpt lat="38.7951820" lon="-9.3483450">
        <ele>182.8</ele>
        <time>2019-02-10T10:02:28Z</time>
      </trkpt>
      <trkpt lat="38.7952360" lon="-9.3483860">
        <ele>182.8</ele>
        <time>2019-02-10T10:02:30Z</time>
      </trkpt>
      <trkpt lat="38.7953150" lon="-9.3484460">
        <ele>184.0</ele>
        <time>2019-02-10T10:02:33Z</time>
      </trkpt>
      <trkpt lat="38.7953720" lon="-9.3484850">
        <ele>184.0</ele>
        <time>2019-02-10T10:02:35Z</time>
      </trkpt>
      <trkpt lat="38.7954180" lon="-9.3485170">
        <ele>184.0</ele>
        <time>2019-02-10T10:02:37Z</time>
      </trkpt>
      <trkpt lat="38.7954590" lon="-9.3485490">
        <ele>184.0</ele>
        <time>2019-02-10T10:02:39Z</time>
      </trkpt>
      <trkpt lat="38.7955250" lon="-9.3485980">
        <ele>184.0</ele>
        <time>2019-02-10T10:02:42Z</time>
      </trkpt>
      <trkpt lat="38.7955740" lon="-9.3486350">
        <ele>184.0</ele>
        <time>2019-02-10T10:02:44Z</time>
      </trkpt>
      <trkpt lat="38.7956200" lon="-9.3486690">
        <ele>184.0</ele>
        <time>2019-02-10T10:02:46Z</time>
      </trkpt>
      <trkpt lat="38.7956680" lon="-9.3487070">
        <ele>184.0</ele>
        <time>2019-02-10T10:02:48Z</time>
      </trkpt>
      <trkpt lat="38.7957150" lon="-9.3487420">
        <ele>184.0</ele>
        <time>2019-02-10T10:02:50Z</time>
      </trkpt>
      <trkpt lat="38.7957610" lon="-9.3487750">
        <ele>184.0</ele>
        <time>2019-02-10T10:02:52Z</time>
      </trkpt>
      <trkpt lat="38.7958140" lon="-9.3488200">
        <ele>184.0</ele>
        <time>2019-02-10T10:02:55Z</time>
      </trkpt>
      <trkpt lat="38.7958400" lon="-9.3489000">
        <ele>184.0</ele>
        <time>2019-02-10T10:02:57Z</time>
      </trkpt>
      <trkpt lat="38.7958760" lon="-9.3489600">
        <ele>184.0</ele>
        <time>2019-02-10T10:02:59Z</time>
      </trkpt>
      <trkpt lat="38.7959170" lon="-9.3490110">
        <ele>185.3</ele>
        <time>2019-02-10T10:03:01Z</time>
      </trkpt>
      <trkpt lat="38.7959680" lon="-9.3490650">
        <ele>185.3</ele>
        <time>2019-02-10T10:03:03Z</time>
      </trkpt>
      <trkpt lat="38.7960090" lon="-9.3491180">
        <ele>185.3</ele>
        <time>2019-02-10T10:03:05Z</time>
      </trkpt>
      <trkpt lat="38.7960470" lon="-9.3491670">
        <ele>185.3</ele>
        <time>2019-02-10T10:03:07Z</time>
      </trkpt>
      <trkpt lat="38.7960860" lon="-9.3492150">
        <ele>186.4</ele>
        <time>2019-02-10T10:03:09Z</time>
      </trkpt>
      <trkpt lat="38.7961270" lon="-9.3492660">
        <ele>186.4</ele>
        <time>2019-02-10T10:03:11Z</time>
      </trkpt>
      <trkpt lat="38.7961630" lon="-9.3493200">
        <ele>186.4</ele>
        <time>2019-02-10T10:03:13Z</time>
      </trkpt>
      <trkpt lat="38.7961930" lon="-9.3493710">
        <ele>186.4</ele>
        <time>2019-02-10T10:03:15Z</time>
      </trkpt>
      <trkpt lat="38.7962210" lon="-9.3494200">
        <ele>186.4</ele>
        <time>2019-02-10T10:03:17Z</time>
      </trkpt>
      <trkpt lat="38.7962730" lon="-9.3494980">
        <ele>186.4</ele>
        <time>2019-02-10T10:03:20Z</time>
      </trkpt>
      <trkpt lat="38.7963030" lon="-9.3495480">
        <ele>186.4</ele>
        <time>2019-02-10T10:03:22Z</time>
      </trkpt>
      <trkpt lat="38.7963370" lon="-9.3496040">
        <ele>186.4</ele>
        <time>2019-02-10T10:03:24Z</time>
      </trkpt>
      <trkpt lat="38.7963720" lon="-9.3496680">
        <ele>186.4</ele>
        <time>2019-02-10T10:03:26Z</time>
      </trkpt>
      <trkpt lat="38.7964030" lon="-9.3497200">
        <ele>186.4</ele>
        <time>2019-02-10T10:03:28Z</time>
      </trkpt>
      <trkpt lat="38.7964520" lon="-9.3498030">
        <ele>186.4</ele>
        <time>2019-02-10T10:03:31Z</time>
      </trkpt>
      <trkpt lat="38.7964830" lon="-9.3498570">
        <ele>186.4</ele>
        <time>2019-02-10T10:03:33Z</time>
      </trkpt>
      <trkpt lat="38.7965130" lon="-9.3499110">
        <ele>186.4</ele>
        <time>2019-02-10T10:03:35Z</time>
      </trkpt>
      <trkpt lat="38.7965440" lon="-9.3499650">
        <ele>186.4</ele>
        <time>2019-02-10T10:03:37Z</time>
      </trkpt>
      <trkpt lat="38.7965750" lon="-9.3500240">
        <ele>187.6</ele>
        <time>2019-02-10T10:03:39Z</time>
      </trkpt>
      <trkpt lat="38.7966080" lon="-9.3500890">
        <ele>187.6</ele>
        <time>2019-02-10T10:03:41Z</time>
      </trkpt>
      <trkpt lat="38.7966390" lon="-9.3501480">
        <ele>187.6</ele>
        <time>2019-02-10T10:03:43Z</time>
      </trkpt>
      <trkpt lat="38.7966620" lon="-9.3502030">
        <ele>187.6</ele>
        <time>2019-02-10T10:03:45Z</time>
      </trkpt>
      <trkpt lat="38.7967000" lon="-9.3502910">
        <ele>186.3</ele>
        <time>2019-02-10T10:03:48Z</time>
      </trkpt>
      <trkpt lat="38.7967180" lon="-9.3503480">
        <ele>186.3</ele>
        <time>2019-02-10T10:03:50Z</time>
      </trkpt>
      <trkpt lat="38.7967460" lon="-9.3504380">
        <ele>186.3</ele>
        <time>2019-02-10T10:03:53Z</time>
      </trkpt>
      <trkpt lat="38.7967690" lon="-9.3505190">
        <ele>186.3</ele>
        <time>2019-02-10T10:03:56Z</time>
      </trkpt>
      <trkpt lat="38.7967920" lon="-9.3506020">
        <ele>186.3</ele>
        <time>2019-02-10T10:03:59Z</time>
      </trkpt>
      <trkpt lat="38.7967720" lon="-9.3506870">
        <ele>186.3</ele>
        <time>2019-02-10T10:04:01Z</time>
      </trkpt>
      <trkpt lat="38.7967870" lon="-9.3507190">
        <ele>186.3</ele>
        <time>2019-02-10T10:04:03Z</time>
      </trkpt>
      <trkpt lat="38.7968280" lon="-9.3507990">
        <ele>186.3</ele>
        <time>2019-02-10T10:04:06Z</time>
      </trkpt>
      <trkpt lat="38.7968670" lon="-9.3508500">
        <ele>186.3</ele>
        <time>2019-02-10T10:04:08Z</time>
      </trkpt>
      <trkpt lat="38.7969050" lon="-9.3509020">
        <ele>186.3</ele>
        <time>2019-02-10T10:04:10Z</time>
      </trkpt>
      <trkpt lat="38.7969410" lon="-9.3509470">
        <ele>187.5</ele>
        <time>2019-02-10T10:04:12Z</time>
      </trkpt>
      <trkpt lat="38.7969890" lon="-9.3510130">
        <ele>187.5</ele>
        <time>2019-02-10T10:04:15Z</time>
      </trkpt>
      <trkpt lat="38.7970200" lon="-9.3510640">
        <ele>187.5</ele>
        <time>2019-02-10T10:04:17Z</time>
      </trkpt>
      <trkpt lat="38.7970740" lon="-9.3511260">
        <ele>187.5</ele>
        <time>2019-02-10T10:04:20Z</time>
      </trkpt>
      <trkpt lat="38.7971280" lon="-9.3511790">
        <ele>187.5</ele>
        <time>2019-02-10T10:04:23Z</time>
      </trkpt>
      <trkpt lat="38.7971740" lon="-9.3512250">
        <ele>187.5</ele>
        <time>2019-02-10T10:04:26Z</time>
      </trkpt>
      <trkpt lat="38.7972170" lon="-9.3512700">
        <ele>187.5</ele>
        <time>2019-02-10T10:04:30Z</time>
      </trkpt>
      <trkpt lat="38.7972840" lon="-9.3513150">
        <ele>187.5</ele>
        <time>2019-02-10T10:04:33Z</time>
      </trkpt>
      <trkpt lat="38.7973250" lon="-9.3513340">
        <ele>187.5</ele>
        <time>2019-02-10T10:04:35Z</time>
      </trkpt>
      <trkpt lat="38.7973890" lon="-9.3513560">
        <ele>187.5</ele>
        <time>2019-02-10T10:04:38Z</time>
      </trkpt>
      <trkpt lat="38.7974630" lon="-9.3513770">
        <ele>187.5</ele>
        <time>2019-02-10T10:04:41Z</time>
      </trkpt>
      <trkpt lat="38.7975170" lon="-9.3513810">
        <ele>187.5</ele>
        <time>2019-02-10T10:04:43Z</time>
      </trkpt>
      <trkpt lat="38.7975730" lon="-9.3513900">
        <ele>187.5</ele>
        <time>2019-02-10T10:04:45Z</time>
      </trkpt>
      <trkpt lat="38.7976290" lon="-9.3513980">
        <ele>187.5</ele>
        <time>2019-02-10T10:04:47Z</time>
      </trkpt>
      <trkpt lat="38.7976830" lon="-9.3514110">
        <ele>187.5</ele>
        <time>2019-02-10T10:04:49Z</time>
      </trkpt>
      <trkpt lat="38.7977450" lon="-9.3514540">
        <ele>187.5</ele>
        <time>2019-02-10T10:04:52Z</time>
      </trkpt>
      <trkpt lat="38.7977830" lon="-9.3514900">
        <ele>187.5</ele>
        <time>2019-02-10T10:04:54Z</time>
      </trkpt>
      <trkpt lat="38.7978290" lon="-9.3515330">
        <ele>187.5</ele>
        <time>2019-02-10T10:04:56Z</time>
      </trkpt>
      <trkpt lat="38.7978750" lon="-9.3515810">
        <ele>187.5</ele>
        <time>2019-02-10T10:04:58Z</time>
      </trkpt>
      <trkpt lat="38.7979140" lon="-9.3516360">
        <ele>187.5</ele>
        <time>2019-02-10T10:05:00Z</time>
      </trkpt>
      <trkpt lat="38.7979390" lon="-9.3516950">
        <ele>187.5</ele>
        <time>2019-02-10T10:05:02Z</time>
      </trkpt>
      <trkpt lat="38.7979620" lon="-9.3517570">
        <ele>187.5</ele>
        <time>2019-02-10T10:05:04Z</time>
      </trkpt>
      <trkpt lat="38.7979930" lon="-9.3518210">
        <ele>187.5</ele>
        <time>2019-02-10T10:05:06Z</time>
      </trkpt>
      <trkpt lat="38.7980190" lon="-9.3518870">
        <ele>187.5</ele>
        <time>2019-02-10T10:05:08Z</time>
      </trkpt>
      <trkpt lat="38.7980420" lon="-9.3519470">
        <ele>187.5</ele>
        <time>2019-02-10T10:05:10Z</time>
      </trkpt>
      <trkpt lat="38.7980650" lon="-9.3520090">
        <ele>187.5</ele>
        <time>2019-02-10T10:05:12Z</time>
      </trkpt>
      <trkpt lat="38.7980880" lon="-9.3520720">
        <ele>187.5</ele>
        <time>2019-02-10T10:05:14Z</time>
      </trkpt>
      <trkpt lat="38.7981180" lon="-9.3521560">
        <ele>187.5</ele>
        <time>2019-02-10T10:05:17Z</time>
      </trkpt>
      <trkpt lat="38.7981640" lon="-9.3522270">
        <ele>187.5</ele>
        <time>2019-02-10T10:05:20Z</time>
      </trkpt>
      <trkpt lat="38.7982110" lon="-9.3522430">
        <ele>187.5</ele>
        <time>2019-02-10T10:05:22Z</time>
      </trkpt>
      <trkpt lat="38.7982750" lon="-9.3521960">
        <ele>186.1</ele>
        <time>2019-02-10T10:05:25Z</time>
      </trkpt>
      <trkpt lat="38.7983210" lon="-9.3521450">
        <ele>184.9</ele>
        <time>2019-02-10T10:05:27Z</time>
      </trkpt>
      <trkpt lat="38.7983620" lon="-9.3521070">
        <ele>184.9</ele>
        <time>2019-02-10T10:05:29Z</time>
      </trkpt>
      <trkpt lat="38.7984230" lon="-9.3520600">
        <ele>183.4</ele>
        <time>2019-02-10T10:05:32Z</time>
      </trkpt>
      <trkpt lat="38.7984840" lon="-9.3520250">
        <ele>182.3</ele>
        <time>2019-02-10T10:05:35Z</time>
      </trkpt>
      <trkpt lat="38.7985540" lon="-9.3519880">
        <ele>182.3</ele>
        <time>2019-02-10T10:05:38Z</time>
      </trkpt>
      <trkpt lat="38.7986000" lon="-9.3519690">
        <ele>180.7</ele>
        <time>2019-02-10T10:05:40Z</time>
      </trkpt>
      <trkpt lat="38.7986760" lon="-9.3519270">
        <ele>180.7</ele>
        <time>2019-02-10T10:05:43Z</time>
      </trkpt>
      <trkpt lat="38.7987330" lon="-9.3518910">
        <ele>179.5</ele>
        <time>2019-02-10T10:05:45Z</time>
      </trkpt>
      <trkpt lat="38.7991760" lon="-9.3512020">
        <ele>179.5</ele>
        <time>2019-02-10T10:08:16Z</time>
      </trkpt>
      <trkpt lat="38.7991370" lon="-9.3510950">
        <ele>179.5</ele>
        <time>2019-02-10T10:08:21Z</time>
      </trkpt>
      <trkpt lat="38.7991120" lon="-9.3510020">
        <ele>178.4</ele>
        <time>2019-02-10T10:08:24Z</time>
      </trkpt>
      <trkpt lat="38.7990990" lon="-9.3509360">
        <ele>178.4</ele>
        <time>2019-02-10T10:08:26Z</time>
      </trkpt>
      <trkpt lat="38.7991070" lon="-9.3508710">
        <ele>178.4</ele>
        <time>2019-02-10T10:08:28Z</time>
      </trkpt>
      <trkpt lat="38.7991220" lon="-9.3508110">
        <ele>177.2</ele>
        <time>2019-02-10T10:08:30Z</time>
      </trkpt>
      <trkpt lat="38.7991600" lon="-9.3507370">
        <ele>177.2</ele>
        <time>2019-02-10T10:08:33Z</time>
      </trkpt>
      <trkpt lat="38.7992220" lon="-9.3506750">
        <ele>177.2</ele>
        <time>2019-02-10T10:08:36Z</time>
      </trkpt>
      <trkpt lat="38.7992830" lon="-9.3506480">
        <ele>177.2</ele>
        <time>2019-02-10T10:08:39Z</time>
      </trkpt>
      <trkpt lat="38.7993470" lon="-9.3506550">
        <ele>178.4</ele>
        <time>2019-02-10T10:08:42Z</time>
      </trkpt>
      <trkpt lat="38.7994240" lon="-9.3506510">
        <ele>178.4</ele>
        <time>2019-02-10T10:08:45Z</time>
      </trkpt>
      <trkpt lat="38.7994730" lon="-9.3506480">
        <ele>179.8</ele>
        <time>2019-02-10T10:08:47Z</time>
      </trkpt>
      <trkpt lat="38.7995490" lon="-9.3506470">
        <ele>179.8</ele>
        <time>2019-02-10T10:08:50Z</time>
      </trkpt>
      <trkpt lat="38.7996030" lon="-9.3506440">
        <ele>181.0</ele>
        <time>2019-02-10T10:08:52Z</time>
      </trkpt>
      <trkpt lat="38.7996520" lon="-9.3506380">
        <ele>181.0</ele>
        <time>2019-02-10T10:08:54Z</time>
      </trkpt>
      <trkpt lat="38.7997360" lon="-9.3506440">
        <ele>181.0</ele>
        <time>2019-02-10T10:08:57Z</time>
      </trkpt>
      <trkpt lat="38.7997850" lon="-9.3506400">
        <ele>182.2</ele>
        <time>2019-02-10T10:08:59Z</time>
      </trkpt>
      <trkpt lat="38.7998520" lon="-9.3506120">
        <ele>182.2</ele>
        <time>2019-02-10T10:09:02Z</time>
      </trkpt>
      <trkpt lat="38.7999100" lon="-9.3505670">
        <ele>182.2</ele>
        <time>2019-02-10T10:09:05Z</time>
      </trkpt>
      <trkpt lat="38.7999640" lon="-9.3505130">
        <ele>183.4</ele>
        <time>2019-02-10T10:09:08Z</time>
      </trkpt>
      <trkpt lat="38.8000150" lon="-9.3504490">
        <ele>184.6</ele>
        <time>2019-02-10T10:09:11Z</time>
      </trkpt>
      <trkpt lat="38.8000610" lon="-9.3503920">
        <ele>184.6</ele>
        <time>2019-02-10T10:09:14Z</time>
      </trkpt>
      <trkpt lat="38.8001050" lon="-9.3503360">
        <ele>184.6</ele>
        <time>2019-02-10T10:09:17Z</time>
      </trkpt>
      <trkpt lat="38.8001660" lon="-9.3502760">
        <ele>184.6</ele>
        <time>2019-02-10T10:09:20Z</time>
      </trkpt>
      <trkpt lat="38.8002050" lon="-9.3502400">
        <ele>184.6</ele>
        <time>2019-02-10T10:09:22Z</time>
      </trkpt>
      <trkpt lat="38.8002510" lon="-9.3501820">
        <ele>186.0</ele>
        <time>2019-02-10T10:09:25Z</time>
      </trkpt>
      <trkpt lat="38.8003070" lon="-9.3501180">
        <ele>186.0</ele>
        <time>2019-02-10T10:09:28Z</time>
      </trkpt>
      <trkpt lat="38.8003530" lon="-9.3500880">
        <ele>186.0</ele>
        <time>2019-02-10T10:09:30Z</time>
      </trkpt>
      <trkpt lat="38.8004070" lon="-9.3500260">
        <ele>186.0</ele>
        <time>2019-02-10T10:09:33Z</time>
      </trkpt>
      <trkpt lat="38.8004710" lon="-9.3499630">
        <ele>187.2</ele>
        <time>2019-02-10T10:09:36Z</time>
      </trkpt>
      <trkpt lat="38.8005090" lon="-9.3499250">
        <ele>187.2</ele>
        <time>2019-02-10T10:09:38Z</time>
      </trkpt>
      <trkpt lat="38.8005610" lon="-9.3498690">
        <ele>187.2</ele>
        <time>2019-02-10T10:09:41Z</time>
      </trkpt>
      <trkpt lat="38.8006140" lon="-9.3498100">
        <ele>187.2</ele>
        <time>2019-02-10T10:09:44Z</time>
      </trkpt>
      <trkpt lat="38.8006480" lon="-9.3497670">
        <ele>187.2</ele>
        <time>2019-02-10T10:09:46Z</time>
      </trkpt>
      <trkpt lat="38.8007040" lon="-9.3497010">
        <ele>187.2</ele>
        <time>2019-02-10T10:09:49Z</time>
      </trkpt>
      <trkpt lat="38.8007400" lon="-9.3496530">
        <ele>187.2</ele>
        <time>2019-02-10T10:09:51Z</time>
      </trkpt>
      <trkpt lat="38.8007810" lon="-9.3496120">
        <ele>187.2</ele>
        <time>2019-02-10T10:09:53Z</time>
      </trkpt>
      <trkpt lat="38.8008420" lon="-9.3495510">
        <ele>187.2</ele>
        <time>2019-02-10T10:09:56Z</time>
      </trkpt>
      <trkpt lat="38.8008880" lon="-9.3495100">
        <ele>188.4</ele>
        <time>2019-02-10T10:09:58Z</time>
      </trkpt>
      <trkpt lat="38.8009270" lon="-9.3494710">
        <ele>188.4</ele>
        <time>2019-02-10T10:10:00Z</time>
      </trkpt>
      <trkpt lat="38.8009650" lon="-9.3494320">
        <ele>188.4</ele>
        <time>2019-02-10T10:10:02Z</time>
      </trkpt>
      <trkpt lat="38.8010270" lon="-9.3493720">
        <ele>188.4</ele>
        <time>2019-02-10T10:10:05Z</time>
      </trkpt>
      <trkpt lat="38.8010680" lon="-9.3493330">
        <ele>188.4</ele>
        <time>2019-02-10T10:10:07Z</time>
      </trkpt>
      <trkpt lat="38.8011240" lon="-9.3492720">
        <ele>188.4</ele>
        <time>2019-02-10T10:10:10Z</time>
      </trkpt>
      <trkpt lat="38.8011620" lon="-9.3492320">
        <ele>188.4</ele>
        <time>2019-02-10T10:10:12Z</time>
      </trkpt>
      <trkpt lat="38.8012240" lon="-9.3491640">
        <ele>188.4</ele>
        <time>2019-02-10T10:10:15Z</time>
      </trkpt>
      <trkpt lat="38.8012720" lon="-9.3491160">
        <ele>188.4</ele>
        <time>2019-02-10T10:10:17Z</time>
      </trkpt>
      <trkpt lat="38.8013110" lon="-9.3490750">
        <ele>188.4</ele>
        <time>2019-02-10T10:10:19Z</time>
      </trkpt>
      <trkpt lat="38.8013540" lon="-9.3490360">
        <ele>188.4</ele>
        <time>2019-02-10T10:10:21Z</time>
      </trkpt>
      <trkpt lat="38.8014000" lon="-9.3489890">
        <ele>188.4</ele>
        <time>2019-02-10T10:10:23Z</time>
      </trkpt>
      <trkpt lat="38.8014590" lon="-9.3489270">
        <ele>188.4</ele>
        <time>2019-02-10T10:10:26Z</time>
      </trkpt>
      <trkpt lat="38.8015130" lon="-9.3488670">
        <ele>188.4</ele>
        <time>2019-02-10T10:10:29Z</time>
      </trkpt>
      <trkpt lat="38.8015510" lon="-9.3488220">
        <ele>188.4</ele>
        <time>2019-02-10T10:10:31Z</time>
      </trkpt>
      <trkpt lat="38.8016100" lon="-9.3487580">
        <ele>188.4</ele>
        <time>2019-02-10T10:10:34Z</time>
      </trkpt>
      <trkpt lat="38.8016510" lon="-9.3487110">
        <ele>188.4</ele>
        <time>2019-02-10T10:10:36Z</time>
      </trkpt>
      <trkpt lat="38.8016970" lon="-9.3486590">
        <ele>188.4</ele>
        <time>2019-02-10T10:10:38Z</time>
      </trkpt>
      <trkpt lat="38.8017430" lon="-9.3486140">
        <ele>188.4</ele>
        <time>2019-02-10T10:10:40Z</time>
      </trkpt>
      <trkpt lat="38.8017820" lon="-9.3485710">
        <ele>188.4</ele>
        <time>2019-02-10T10:10:42Z</time>
      </trkpt>
      <trkpt lat="38.8018180" lon="-9.3485280">
        <ele>188.4</ele>
        <time>2019-02-10T10:10:44Z</time>
      </trkpt>
      <trkpt lat="38.8018790" lon="-9.3484650">
        <ele>188.4</ele>
        <time>2019-02-10T10:10:47Z</time>
      </trkpt>
      <trkpt lat="38.8019230" lon="-9.3484170">
        <ele>188.4</ele>
        <time>2019-02-10T10:10:49Z</time>
      </trkpt>
      <trkpt lat="38.8019690" lon="-9.3483690">
        <ele>187.2</ele>
        <time>2019-02-10T10:10:51Z</time>
      </trkpt>
      <trkpt lat="38.8020100" lon="-9.3483210">
        <ele>187.2</ele>
        <time>2019-02-10T10:10:53Z</time>
      </trkpt>
      <trkpt lat="38.8020430" lon="-9.3482810">
        <ele>187.2</ele>
        <time>2019-02-10T10:10:55Z</time>
      </trkpt>
      <trkpt lat="38.8021040" lon="-9.3482090">
        <ele>185.9</ele>
        <time>2019-02-10T10:10:58Z</time>
      </trkpt>
      <trkpt lat="38.8021480" lon="-9.3481630">
        <ele>185.9</ele>
        <time>2019-02-10T10:11:00Z</time>
      </trkpt>
      <trkpt lat="38.8021860" lon="-9.3481160">
        <ele>185.9</ele>
        <time>2019-02-10T10:11:02Z</time>
      </trkpt>
      <trkpt lat="38.8022270" lon="-9.3480690">
        <ele>184.7</ele>
        <time>2019-02-10T10:11:04Z</time>
      </trkpt>
      <trkpt lat="38.8022660" lon="-9.3480240">
        <ele>184.7</ele>
        <time>2019-02-10T10:11:06Z</time>
      </trkpt>
      <trkpt lat="38.8023040" lon="-9.3479810">
        <ele>184.7</ele>
        <time>2019-02-10T10:11:08Z</time>
      </trkpt>
      <trkpt lat="38.8023600" lon="-9.3479170">
        <ele>183.5</ele>
        <time>2019-02-10T10:11:11Z</time>
      </trkpt>
      <trkpt lat="38.8023990" lon="-9.3478720">
        <ele>183.5</ele>
        <time>2019-02-10T10:11:13Z</time>
      </trkpt>
      <trkpt lat="38.8024520" lon="-9.3478070">
        <ele>183.5</ele>
        <time>2019-02-10T10:11:16Z</time>
      </trkpt>
      <trkpt lat="38.8025010" lon="-9.3477250">
        <ele>182.2</ele>
        <time>2019-02-10T10:11:19Z</time>
      </trkpt>
      <trkpt lat="38.8025450" lon="-9.3476740">
        <ele>182.2</ele>
        <time>2019-02-10T10:11:21Z</time>
      </trkpt>
      <trkpt lat="38.8025830" lon="-9.3476280">
        <ele>182.2</ele>
        <time>2019-02-10T10:11:23Z</time>
      </trkpt>
      <trkpt lat="38.8026240" lon="-9.3475810">
        <ele>182.2</ele>
        <time>2019-02-10T10:11:25Z</time>
      </trkpt>
      <trkpt lat="38.8026570" lon="-9.3475280">
        <ele>180.8</ele>
        <time>2019-02-10T10:11:27Z</time>
      </trkpt>
      <trkpt lat="38.8026880" lon="-9.3474810">
        <ele>180.8</ele>
        <time>2019-02-10T10:11:29Z</time>
      </trkpt>
      <trkpt lat="38.8027390" lon="-9.3474170">
        <ele>180.8</ele>
        <time>2019-02-10T10:11:32Z</time>
      </trkpt>
      <trkpt lat="38.8027880" lon="-9.3473630">
        <ele>180.8</ele>
        <time>2019-02-10T10:11:35Z</time>
      </trkpt>
      <trkpt lat="38.8028440" lon="-9.3473040">
        <ele>179.6</ele>
        <time>2019-02-10T10:11:38Z</time>
      </trkpt>
      <trkpt lat="38.8029030" lon="-9.3472510">
        <ele>178.4</ele>
        <time>2019-02-10T10:11:41Z</time>
      </trkpt>
      <trkpt lat="38.8029440" lon="-9.3472130">
        <ele>178.4</ele>
        <time>2019-02-10T10:11:43Z</time>
      </trkpt>
      <trkpt lat="38.8030050" lon="-9.3471580">
        <ele>178.4</ele>
        <time>2019-02-10T10:11:46Z</time>
      </trkpt>
      <trkpt lat="38.8030620" lon="-9.3471000">
        <ele>178.4</ele>
        <time>2019-02-10T10:11:49Z</time>
      </trkpt>
      <trkpt lat="38.8031000" lon="-9.3470620">
        <ele>178.4</ele>
        <time>2019-02-10T10:11:51Z</time>
      </trkpt>
      <trkpt lat="38.8031460" lon="-9.3470140">
        <ele>178.4</ele>
        <time>2019-02-10T10:11:54Z</time>
      </trkpt>
      <trkpt lat="38.8031920" lon="-9.3469480">
        <ele>178.4</ele>
        <time>2019-02-10T10:11:57Z</time>
      </trkpt>
      <trkpt lat="38.8032380" lon="-9.3468780">
        <ele>178.4</ele>
        <time>2019-02-10T10:12:00Z</time>
      </trkpt>
      <trkpt lat="38.8032950" lon="-9.3468210">
        <ele>178.4</ele>
        <time>2019-02-10T10:12:03Z</time>
      </trkpt>
      <trkpt lat="38.8033330" lon="-9.3467810">
        <ele>178.4</ele>
        <time>2019-02-10T10:12:05Z</time>
      </trkpt>
      <trkpt lat="38.8033660" lon="-9.3467400">
        <ele>178.4</ele>
        <time>2019-02-10T10:12:07Z</time>
      </trkpt>
      <trkpt lat="38.8034200" lon="-9.3466840">
        <ele>178.4</ele>
        <time>2019-02-10T10:12:10Z</time>
      </trkpt>
      <trkpt lat="38.8034710" lon="-9.3466210">
        <ele>178.4</ele>
        <time>2019-02-10T10:12:13Z</time>
      </trkpt>
      <trkpt lat="38.8035050" lon="-9.3465800">
        <ele>176.9</ele>
        <time>2019-02-10T10:12:15Z</time>
      </trkpt>
      <trkpt lat="38.8035610" lon="-9.3465220">
        <ele>175.4</ele>
        <time>2019-02-10T10:12:18Z</time>
      </trkpt>
      <trkpt lat="38.8036120" lon="-9.3464920">
        <ele>175.4</ele>
        <time>2019-02-10T10:12:20Z</time>
      </trkpt>
      <trkpt lat="38.8036610" lon="-9.3464560">
        <ele>175.4</ele>
        <time>2019-02-10T10:12:22Z</time>
      </trkpt>
      <trkpt lat="38.8036990" lon="-9.3464170">
        <ele>175.4</ele>
        <time>2019-02-10T10:12:24Z</time>
      </trkpt>
      <trkpt lat="38.8037350" lon="-9.3463690">
        <ele>175.4</ele>
        <time>2019-02-10T10:12:26Z</time>
      </trkpt>
      <trkpt lat="38.8037760" lon="-9.3463220">
        <ele>175.4</ele>
        <time>2019-02-10T10:12:28Z</time>
      </trkpt>
      <trkpt lat="38.8038140" lon="-9.3462800">
        <ele>175.4</ele>
        <time>2019-02-10T10:12:30Z</time>
      </trkpt>
      <trkpt lat="38.8038760" lon="-9.3462180">
        <ele>176.9</ele>
        <time>2019-02-10T10:12:33Z</time>
      </trkpt>
      <trkpt lat="38.8039400" lon="-9.3461450">
        <ele>176.9</ele>
        <time>2019-02-10T10:12:37Z</time>
      </trkpt>
      <trkpt lat="38.8039940" lon="-9.3460860">
        <ele>178.1</ele>
        <time>2019-02-10T10:12:40Z</time>
      </trkpt>
      <trkpt lat="38.8040500" lon="-9.3460260">
        <ele>178.1</ele>
        <time>2019-02-10T10:12:43Z</time>
      </trkpt>
      <trkpt lat="38.8040880" lon="-9.3459830">
        <ele>178.1</ele>
        <time>2019-02-10T10:12:45Z</time>
      </trkpt>
      <trkpt lat="38.8041450" lon="-9.3459170">
        <ele>178.1</ele>
        <time>2019-02-10T10:12:48Z</time>
      </trkpt>
      <trkpt lat="38.8041880" lon="-9.3458700">
        <ele>179.4</ele>
        <time>2019-02-10T10:12:50Z</time>
      </trkpt>
      <trkpt lat="38.8042290" lon="-9.3458230">
        <ele>179.4</ele>
        <time>2019-02-10T10:12:52Z</time>
      </trkpt>
      <trkpt lat="38.8042680" lon="-9.3457800">
        <ele>179.4</ele>
        <time>2019-02-10T10:12:54Z</time>
      </trkpt>
      <trkpt lat="38.8043060" lon="-9.3457380">
        <ele>179.4</ele>
        <time>2019-02-10T10:12:56Z</time>
      </trkpt>
      <trkpt lat="38.8043600" lon="-9.3456780">
        <ele>180.5</ele>
        <time>2019-02-10T10:12:59Z</time>
      </trkpt>
      <trkpt lat="38.8044160" lon="-9.3456150">
        <ele>180.5</ele>
        <time>2019-02-10T10:13:02Z</time>
      </trkpt>
      <trkpt lat="38.8044600" lon="-9.3455710">
        <ele>180.5</ele>
        <time>2019-02-10T10:13:04Z</time>
      </trkpt>
      <trkpt lat="38.8044980" lon="-9.3455320">
        <ele>180.5</ele>
        <time>2019-02-10T10:13:06Z</time>
      </trkpt>
      <trkpt lat="38.8045470" lon="-9.3454790">
        <ele>181.9</ele>
        <time>2019-02-10T10:13:09Z</time>
      </trkpt>
      <trkpt lat="38.8045950" lon="-9.3454220">
        <ele>181.9</ele>
        <time>2019-02-10T10:13:12Z</time>
      </trkpt>
      <trkpt lat="38.8046490" lon="-9.3453630">
        <ele>183.1</ele>
        <time>2019-02-10T10:13:15Z</time>
      </trkpt>
      <trkpt lat="38.8046870" lon="-9.3453230">
        <ele>183.1</ele>
        <time>2019-02-10T10:13:17Z</time>
      </trkpt>
      <trkpt lat="38.8047330" lon="-9.3452690">
        <ele>183.1</ele>
        <time>2019-02-10T10:13:20Z</time>
      </trkpt>
      <trkpt lat="38.8047800" lon="-9.3452090">
        <ele>184.4</ele>
        <time>2019-02-10T10:13:23Z</time>
      </trkpt>
      <trkpt lat="38.8048260" lon="-9.3451440">
        <ele>184.4</ele>
        <time>2019-02-10T10:13:26Z</time>
      </trkpt>
      <trkpt lat="38.8048640" lon="-9.3451020">
        <ele>184.4</ele>
        <time>2019-02-10T10:13:28Z</time>
      </trkpt>
      <trkpt lat="38.8049050" lon="-9.3450620">
        <ele>185.5</ele>
        <time>2019-02-10T10:13:30Z</time>
      </trkpt>
      <trkpt lat="38.8049610" lon="-9.3450020">
        <ele>185.5</ele>
        <time>2019-02-10T10:13:33Z</time>
      </trkpt>
      <trkpt lat="38.8050000" lon="-9.3449610">
        <ele>186.7</ele>
        <time>2019-02-10T10:13:35Z</time>
      </trkpt>
      <trkpt lat="38.8052150" lon="-9.3447220">
        <ele>186.7</ele>
        <time>2019-02-10T10:15:07Z</time>
      </trkpt>
      <trkpt lat="38.8052300" lon="-9.3446210">
        <ele>186.7</ele>
        <time>2019-02-10T10:15:11Z</time>
      </trkpt>
      <trkpt lat="38.8052710" lon="-9.3445400">
        <ele>186.7</ele>
        <time>2019-02-10T10:15:14Z</time>
      </trkpt>
      <trkpt lat="38.8052970" lon="-9.3444850">
        <ele>186.7</ele>
        <time>2019-02-10T10:15:16Z</time>
      </trkpt>
      <trkpt lat="38.8053320" lon="-9.3444320">
        <ele>185.5</ele>
        <time>2019-02-10T10:15:18Z</time>
      </trkpt>
      <trkpt lat="38.8053710" lon="-9.3443760">
        <ele>185.5</ele>
        <time>2019-02-10T10:15:20Z</time>
      </trkpt>
      <trkpt lat="38.8054020" lon="-9.3443170">
        <ele>185.5</ele>
        <time>2019-02-10T10:15:22Z</time>
      </trkpt>
      <trkpt lat="38.8054250" lon="-9.3442590">
        <ele>185.5</ele>
        <time>2019-02-10T10:15:24Z</time>
      </trkpt>
      <trkpt lat="38.8054480" lon="-9.3442010">
        <ele>185.5</ele>
        <time>2019-02-10T10:15:26Z</time>
      </trkpt>
      <trkpt lat="38.8054810" lon="-9.3441130">
        <ele>186.7</ele>
        <time>2019-02-10T10:15:29Z</time>
      </trkpt>
      <trkpt lat="38.8055040" lon="-9.3440560">
        <ele>186.7</ele>
        <time>2019-02-10T10:15:31Z</time>
      </trkpt>
      <trkpt lat="38.8055450" lon="-9.3439710">
        <ele>186.7</ele>
        <time>2019-02-10T10:15:34Z</time>
      </trkpt>
      <trkpt lat="38.8055680" lon="-9.3439110">
        <ele>187.9</ele>
        <time>2019-02-10T10:15:36Z</time>
      </trkpt>
      <trkpt lat="38.8055960" lon="-9.3438460">
        <ele>187.9</ele>
        <time>2019-02-10T10:15:38Z</time>
      </trkpt>
      <trkpt lat="38.8056190" lon="-9.3437840">
        <ele>189.1</ele>
        <time>2019-02-10T10:15:40Z</time>
      </trkpt>
      <trkpt lat="38.8056370" lon="-9.3437240">
        <ele>189.1</ele>
        <time>2019-02-10T10:15:42Z</time>
      </trkpt>
      <trkpt lat="38.8056580" lon="-9.3436610">
        <ele>189.1</ele>
        <time>2019-02-10T10:15:44Z</time>
      </trkpt>
      <trkpt lat="38.8056760" lon="-9.3435960">
        <ele>189.1</ele>
        <time>2019-02-10T10:15:46Z</time>
      </trkpt>
      <trkpt lat="38.8056910" lon="-9.3435330">
        <ele>189.1</ele>
        <time>2019-02-10T10:15:48Z</time>
      </trkpt>
      <trkpt lat="38.8057140" lon="-9.3434390">
        <ele>189.1</ele>
        <time>2019-02-10T10:15:51Z</time>
      </trkpt>
      <trkpt lat="38.8057290" lon="-9.3433720">
        <ele>189.1</ele>
        <time>2019-02-10T10:15:53Z</time>
      </trkpt>
      <trkpt lat="38.8057400" lon="-9.3433090">
        <ele>189.1</ele>
        <time>2019-02-10T10:15:55Z</time>
      </trkpt>
      <trkpt lat="38.8057520" lon="-9.3432470">
        <ele>189.1</ele>
        <time>2019-02-10T10:15:57Z</time>
      </trkpt>
      <trkpt lat="38.8057680" lon="-9.3431490">
        <ele>189.1</ele>
        <time>2019-02-10T10:16:00Z</time>
      </trkpt>
      <trkpt lat="38.8057750" lon="-9.3430850">
        <ele>189.1</ele>
        <time>2019-02-10T10:16:02Z</time>
      </trkpt>
      <trkpt lat="38.8057860" lon="-9.3429870">
        <ele>189.1</ele>
        <time>2019-02-10T10:16:05Z</time>
      </trkpt>
      <trkpt lat="38.8057910" lon="-9.3429200">
        <ele>189.1</ele>
        <time>2019-02-10T10:16:07Z</time>
      </trkpt>
      <trkpt lat="38.8057930" lon="-9.3428540">
        <ele>189.1</ele>
        <time>2019-02-10T10:16:09Z</time>
      </trkpt>
      <trkpt lat="38.8057930" lon="-9.3427870">
        <ele>189.1</ele>
        <time>2019-02-10T10:16:11Z</time>
      </trkpt>
      <trkpt lat="38.8057930" lon="-9.3427160">
        <ele>189.1</ele>
        <time>2019-02-10T10:16:13Z</time>
      </trkpt>
      <trkpt lat="38.8057910" lon="-9.3426480">
        <ele>189.1</ele>
        <time>2019-02-10T10:16:15Z</time>
      </trkpt>
      <trkpt lat="38.8057910" lon="-9.3425800">
        <ele>189.1</ele>
        <time>2019-02-10T10:16:17Z</time>
      </trkpt>
      <trkpt lat="38.8057830" lon="-9.3424820">
        <ele>189.1</ele>
        <time>2019-02-10T10:16:20Z</time>
      </trkpt>
      <trkpt lat="38.8057780" lon="-9.3424150">
        <ele>189.1</ele>
        <time>2019-02-10T10:16:22Z</time>
      </trkpt>
      <trkpt lat="38.8057750" lon="-9.3423500">
        <ele>189.1</ele>
        <time>2019-02-10T10:16:24Z</time>
      </trkpt>
      <trkpt lat="38.8057680" lon="-9.3422570">
        <ele>189.1</ele>
        <time>2019-02-10T10:16:27Z</time>
      </trkpt>
      <trkpt lat="38.8057600" lon="-9.3421630">
        <ele>189.1</ele>
        <time>2019-02-10T10:16:30Z</time>
      </trkpt>
      <trkpt lat="38.8057520" lon="-9.3421020">
        <ele>187.9</ele>
        <time>2019-02-10T10:16:32Z</time>
      </trkpt>
      <trkpt lat="38.8057450" lon="-9.3420120">
        <ele>187.9</ele>
        <time>2019-02-10T10:16:35Z</time>
      </trkpt>
      <trkpt lat="38.8057400" lon="-9.3419510">
        <ele>187.9</ele>
        <time>2019-02-10T10:16:37Z</time>
      </trkpt>
      <trkpt lat="38.8057320" lon="-9.3418580">
        <ele>187.9</ele>
        <time>2019-02-10T10:16:40Z</time>
      </trkpt>
      <trkpt lat="38.8057290" lon="-9.3417630">
        <ele>187.9</ele>
        <time>2019-02-10T10:16:43Z</time>
      </trkpt>
      <trkpt lat="38.8057220" lon="-9.3416690">
        <ele>187.9</ele>
        <time>2019-02-10T10:16:46Z</time>
      </trkpt>
      <trkpt lat="38.8057160" lon="-9.3416080">
        <ele>187.9</ele>
        <time>2019-02-10T10:16:48Z</time>
      </trkpt>
      <trkpt lat="38.8057090" lon="-9.3415120">
        <ele>187.9</ele>
        <time>2019-02-10T10:16:51Z</time>
      </trkpt>
      <trkpt lat="38.8057060" lon="-9.3414240">
        <ele>187.9</ele>
        <time>2019-02-10T10:16:54Z</time>
      </trkpt>
      <trkpt lat="38.8057010" lon="-9.3413290">
        <ele>187.9</ele>
        <time>2019-02-10T10:16:57Z</time>
      </trkpt>
      <trkpt lat="38.8057010" lon="-9.3412310">
        <ele>187.9</ele>
        <time>2019-02-10T10:17:00Z</time>
      </trkpt>
      <trkpt lat="38.8056990" lon="-9.3411670">
        <ele>187.9</ele>
        <time>2019-02-10T10:17:02Z</time>
      </trkpt>
      <trkpt lat="38.8056990" lon="-9.3410760">
        <ele>187.9</ele>
        <time>2019-02-10T10:17:05Z</time>
      </trkpt>
      <trkpt lat="38.8056990" lon="-9.3409840">
        <ele>187.9</ele>
        <time>2019-02-10T10:17:08Z</time>
      </trkpt>
      <trkpt lat="38.8056930" lon="-9.3408900">
        <ele>187.9</ele>
        <time>2019-02-10T10:17:11Z</time>
      </trkpt>
      <trkpt lat="38.8056860" lon="-9.3407960">
        <ele>186.7</ele>
        <time>2019-02-10T10:17:14Z</time>
      </trkpt>
      <trkpt lat="38.8056780" lon="-9.3407050">
        <ele>186.7</ele>
        <time>2019-02-10T10:17:17Z</time>
      </trkpt>
      <trkpt lat="38.8056730" lon="-9.3406150">
        <ele>186.7</ele>
        <time>2019-02-10T10:17:20Z</time>
      </trkpt>
      <trkpt lat="38.8056600" lon="-9.3405290">
        <ele>186.7</ele>
        <time>2019-02-10T10:17:23Z</time>
      </trkpt>
      <trkpt lat="38.8056500" lon="-9.3404390">
        <ele>186.7</ele>
        <time>2019-02-10T10:17:26Z</time>
      </trkpt>
      <trkpt lat="38.8056420" lon="-9.3403790">
        <ele>186.7</ele>
        <time>2019-02-10T10:17:28Z</time>
      </trkpt>
      <trkpt lat="38.8056290" lon="-9.3402870">
        <ele>186.7</ele>
        <time>2019-02-10T10:17:31Z</time>
      </trkpt>
      <trkpt lat="38.8056140" lon="-9.3401980">
        <ele>186.7</ele>
        <time>2019-02-10T10:17:34Z</time>
      </trkpt>
      <trkpt lat="38.8055960" lon="-9.3401040">
        <ele>186.7</ele>
        <time>2019-02-10T10:17:37Z</time>
      </trkpt>
      <trkpt lat="38.8055810" lon="-9.3400120">
        <ele>186.7</ele>
        <time>2019-02-10T10:17:40Z</time>
      </trkpt>
      <trkpt lat="38.8055680" lon="-9.3399510">
        <ele>186.7</ele>
        <time>2019-02-10T10:17:42Z</time>
      </trkpt>
      <trkpt lat="38.8055500" lon="-9.3398650">
        <ele>186.7</ele>
        <time>2019-02-10T10:17:45Z</time>
      </trkpt>
      <trkpt lat="38.8055370" lon="-9.3398050">
        <ele>186.7</ele>
        <time>2019-02-10T10:17:47Z</time>
      </trkpt>
      <trkpt lat="38.8055190" lon="-9.3397160">
        <ele>186.7</ele>
        <time>2019-02-10T10:17:50Z</time>
      </trkpt>
      <trkpt lat="38.8054990" lon="-9.3396260">
        <ele>186.7</ele>
        <time>2019-02-10T10:17:53Z</time>
      </trkpt>
      <trkpt lat="38.8054810" lon="-9.3395340">
        <ele>187.9</ele>
        <time>2019-02-10T10:17:56Z</time>
      </trkpt>
      <trkpt lat="38.8054480" lon="-9.3394520">
        <ele>187.9</ele>
        <time>2019-02-10T10:17:59Z</time>
      </trkpt>
      <trkpt lat="38.8054120" lon="-9.3394000">
        <ele>187.9</ele>
        <time>2019-02-10T10:18:01Z</time>
      </trkpt>
      <trkpt lat="38.8053790" lon="-9.3393440">
        <ele>187.9</ele>
        <time>2019-02-10T10:18:03Z</time>
      </trkpt>
      <trkpt lat="38.8053560" lon="-9.3392830">
        <ele>187.9</ele>
        <time>2019-02-10T10:18:05Z</time>
      </trkpt>
      <trkpt lat="38.8053350" lon="-9.3392220">
        <ele>187.9</ele>
        <time>2019-02-10T10:18:07Z</time>
      </trkpt>
      <trkpt lat="38.8053120" lon="-9.3391650">
        <ele>187.9</ele>
        <time>2019-02-10T10:18:09Z</time>
      </trkpt>
      <trkpt lat="38.8052860" lon="-9.3390760">
        <ele>187.9</ele>
        <time>2019-02-10T10:18:12Z</time>
      </trkpt>
      <trkpt lat="38.8052530" lon="-9.3389950">
        <ele>187.9</ele>
        <time>2019-02-10T10:18:15Z</time>
      </trkpt>
      <trkpt lat="38.8052150" lon="-9.3389160">
        <ele>189.1</ele>
        <time>2019-02-10T10:18:18Z</time>
      </trkpt>
      <trkpt lat="38.8051790" lon="-9.3388380">
        <ele>189.1</ele>
        <time>2019-02-10T10:18:21Z</time>
      </trkpt>
      <trkpt lat="38.8051530" lon="-9.3387550">
        <ele>189.1</ele>
        <time>2019-02-10T10:18:24Z</time>
      </trkpt>
      <trkpt lat="38.8051150" lon="-9.3386710">
        <ele>189.1</ele>
        <time>2019-02-10T10:18:27Z</time>
      </trkpt>
      <trkpt lat="38.8050920" lon="-9.3386140">
        <ele>189.1</ele>
        <time>2019-02-10T10:18:29Z</time>
      </trkpt>
      <trkpt lat="38.8050920" lon="-9.3385330">
        <ele>189.1</ele>
        <time>2019-02-10T10:18:32Z</time>
      </trkpt>
      <trkpt lat="38.8050890" lon="-9.3384600">
        <ele>189.1</ele>
        <time>2019-02-10T10:18:35Z</time>
      </trkpt>
      <trkpt lat="38.8049770" lon="-9.3385130">
        <ele>189.1</ele>
        <time>2019-02-10T10:20:16Z</time>
      </trkpt>
      <trkpt lat="38.8049230" lon="-9.3384450">
        <ele>189.1</ele>
        <time>2019-02-10T10:20:20Z</time>
      </trkpt>
      <trkpt lat="38.8048670" lon="-9.3383340">
        <ele>189.1</ele>
        <time>2019-02-10T10:20:24Z</time>
      </trkpt>
      <trkpt lat="38.8048360" lon="-9.3382700">
        <ele>189.1</ele>
        <time>2019-02-10T10:20:26Z</time>
      </trkpt>
      <trkpt lat="38.8048100" lon="-9.3382050">
        <ele>189.1</ele>
        <time>2019-02-10T10:20:28Z</time>
      </trkpt>
      <trkpt lat="38.8047820" lon="-9.3381420">
        <ele>189.1</ele>
        <time>2019-02-10T10:20:30Z</time>
      </trkpt>
      <trkpt lat="38.8047590" lon="-9.3380810">
        <ele>189.1</ele>
        <time>2019-02-10T10:20:32Z</time>
      </trkpt>
      <trkpt lat="38.8047360" lon="-9.3380210">
        <ele>189.1</ele>
        <time>2019-02-10T10:20:34Z</time>
      </trkpt>
      <trkpt lat="38.8047130" lon="-9.3379630">
        <ele>190.4</ele>
        <time>2019-02-10T10:20:36Z</time>
      </trkpt>
      <trkpt lat="38.8047000" lon="-9.3378980">
        <ele>191.7</ele>
        <time>2019-02-10T10:20:38Z</time>
      </trkpt>
      <trkpt lat="38.8046640" lon="-9.3378110">
        <ele>193.1</ele>
        <time>2019-02-10T10:20:41Z</time>
      </trkpt>
      <trkpt lat="38.8046340" lon="-9.3377640">
        <ele>194.3</ele>
        <time>2019-02-10T10:20:43Z</time>
      </trkpt>
      <trkpt lat="38.8045930" lon="-9.3377100">
        <ele>194.3</ele>
        <time>2019-02-10T10:20:46Z</time>
      </trkpt>
      <trkpt lat="38.8045540" lon="-9.3376510">
        <ele>195.6</ele>
        <time>2019-02-10T10:20:49Z</time>
      </trkpt>
      <trkpt lat="38.8045080" lon="-9.3375750">
        <ele>197.0</ele>
        <time>2019-02-10T10:20:52Z</time>
      </trkpt>
      <trkpt lat="38.8044700" lon="-9.3375210">
        <ele>198.4</ele>
        <time>2019-02-10T10:20:54Z</time>
      </trkpt>
      <trkpt lat="38.8044390" lon="-9.3374640">
        <ele>198.4</ele>
        <time>2019-02-10T10:20:56Z</time>
      </trkpt>
      <trkpt lat="38.8044060" lon="-9.3374070">
        <ele>198.4</ele>
        <time>2019-02-10T10:20:58Z</time>
      </trkpt>
      <trkpt lat="38.8043780" lon="-9.3373460">
        <ele>199.5</ele>
        <time>2019-02-10T10:21:00Z</time>
      </trkpt>
      <trkpt lat="38.8043620" lon="-9.3372510">
        <ele>200.7</ele>
        <time>2019-02-10T10:21:03Z</time>
      </trkpt>
      <trkpt lat="38.8043670" lon="-9.3371900">
        <ele>200.7</ele>
        <time>2019-02-10T10:21:05Z</time>
      </trkpt>
      <trkpt lat="38.8043830" lon="-9.3371140">
        <ele>200.7</ele>
        <time>2019-02-10T10:21:08Z</time>
      </trkpt>
      <trkpt lat="38.8044240" lon="-9.3370620">
        <ele>202.0</ele>
        <time>2019-02-10T10:21:11Z</time>
      </trkpt>
      <trkpt lat="38.8044830" lon="-9.3370300">
        <ele>202.0</ele>
        <time>2019-02-10T10:21:14Z</time>
      </trkpt>
      <trkpt lat="38.8045410" lon="-9.3369750">
        <ele>203.2</ele>
        <time>2019-02-10T10:21:17Z</time>
      </trkpt>
      <trkpt lat="38.8045930" lon="-9.3369450">
        <ele>203.2</ele>
        <time>2019-02-10T10:21:19Z</time>
      </trkpt>
      <trkpt lat="38.8046390" lon="-9.3369150">
        <ele>203.2</ele>
        <time>2019-02-10T10:21:21Z</time>
      </trkpt>
      <trkpt lat="38.8046870" lon="-9.3368930">
        <ele>203.2</ele>
        <time>2019-02-10T10:21:23Z</time>
      </trkpt>
      <trkpt lat="38.8047410" lon="-9.3368800">
        <ele>204.4</ele>
        <time>2019-02-10T10:21:25Z</time>
      </trkpt>
      <trkpt lat="38.8048100" lon="-9.3368670">
        <ele>204.4</ele>
        <time>2019-02-10T10:21:28Z</time>
      </trkpt>
      <trkpt lat="38.8048790" lon="-9.3368420">
        <ele>204.4</ele>
        <time>2019-02-10T10:21:31Z</time>
      </trkpt>
      <trkpt lat="38.8049380" lon="-9.3368120">
        <ele>204.4</ele>
        <time>2019-02-10T10:21:34Z</time>
      </trkpt>
      <trkpt lat="38.8049920" lon="-9.3367880">
        <ele>205.6</ele>
        <time>2019-02-10T10:21:36Z</time>
      </trkpt>
      <trkpt lat="38.8050430" lon="-9.3367700">
        <ele>205.6</ele>
        <time>2019-02-10T10:21:38Z</time>
      </trkpt>
      <trkpt lat="38.8051100" lon="-9.3367500">
        <ele>205.6</ele>
        <time>2019-02-10T10:21:41Z</time>
      </trkpt>
      <trkpt lat="38.8051760" lon="-9.3367370">
        <ele>206.8</ele>
        <time>2019-02-10T10:21:44Z</time>
      </trkpt>
      <trkpt lat="38.8052480" lon="-9.3367240">
        <ele>206.8</ele>
        <time>2019-02-10T10:21:47Z</time>
      </trkpt>
      <trkpt lat="38.8052970" lon="-9.3367170">
        <ele>206.8</ele>
        <time>2019-02-10T10:21:49Z</time>
      </trkpt>
      <trkpt lat="38.8053710" lon="-9.3367450">
        <ele>208.1</ele>
        <time>2019-02-10T10:21:52Z</time>
      </trkpt>
      <trkpt lat="38.8054120" lon="-9.3367730">
        <ele>208.1</ele>
        <time>2019-02-10T10:21:54Z</time>
      </trkpt>
      <trkpt lat="38.8054810" lon="-9.3367930">
        <ele>208.1</ele>
        <time>2019-02-10T10:21:57Z</time>
      </trkpt>
      <trkpt lat="38.8055300" lon="-9.3368010">
        <ele>208.1</ele>
        <time>2019-02-10T10:21:59Z</time>
      </trkpt>
      <trkpt lat="38.8055810" lon="-9.3368140">
        <ele>208.1</ele>
        <time>2019-02-10T10:22:01Z</time>
      </trkpt>
      <trkpt lat="38.8056500" lon="-9.3368370">
        <ele>208.1</ele>
        <time>2019-02-10T10:22:04Z</time>
      </trkpt>
      <trkpt lat="38.8057140" lon="-9.3368670">
        <ele>209.3</ele>
        <time>2019-02-10T10:22:07Z</time>
      </trkpt>
      <trkpt lat="38.8057750" lon="-9.3369210">
        <ele>209.3</ele>
        <time>2019-02-10T10:22:10Z</time>
      </trkpt>
      <trkpt lat="38.8058390" lon="-9.3369790">
        <ele>209.3</ele>
        <time>2019-02-10T10:22:13Z</time>
      </trkpt>
      <trkpt lat="38.8058780" lon="-9.3370270">
        <ele>209.3</ele>
        <time>2019-02-10T10:22:15Z</time>
      </trkpt>
      <trkpt lat="38.8059190" lon="-9.3370640">
        <ele>209.3</ele>
        <time>2019-02-10T10:22:17Z</time>
      </trkpt>
      <trkpt lat="38.8059650" lon="-9.3370890">
        <ele>209.3</ele>
        <time>2019-02-10T10:22:19Z</time>
      </trkpt>
      <trkpt lat="38.8060390" lon="-9.3370930">
        <ele>209.3</ele>
        <time>2019-02-10T10:22:22Z</time>
      </trkpt>
      <trkpt lat="38.8061130" lon="-9.3370780">
        <ele>209.3</ele>
        <time>2019-02-10T10:22:25Z</time>
      </trkpt>
      <trkpt lat="38.8061670" lon="-9.3370560">
        <ele>209.3</ele>
        <time>2019-02-10T10:22:27Z</time>
      </trkpt>
      <trkpt lat="38.8062180" lon="-9.3370210">
        <ele>209.3</ele>
        <time>2019-02-10T10:22:29Z</time>
      </trkpt>
      <trkpt lat="38.8062620" lon="-9.3369720">
        <ele>207.9</ele>
        <time>2019-02-10T10:22:31Z</time>
      </trkpt>
      <trkpt lat="38.8062980" lon="-9.3369140">
        <ele>207.9</ele>
        <time>2019-02-10T10:22:33Z</time>
      </trkpt>
      <trkpt lat="38.8063230" lon="-9.3368450">
        <ele>207.9</ele>
        <time>2019-02-10T10:22:35Z</time>
      </trkpt>
      <trkpt lat="38.8063390" lon="-9.3367810">
        <ele>206.7</ele>
        <time>2019-02-10T10:22:37Z</time>
      </trkpt>
      <trkpt lat="38.8063670" lon="-9.3367210">
        <ele>206.7</ele>
        <time>2019-02-10T10:22:39Z</time>
      </trkpt>
      <trkpt lat="38.8064080" lon="-9.3366620">
        <ele>205.5</ele>
        <time>2019-02-10T10:22:41Z</time>
      </trkpt>
      <trkpt lat="38.8064490" lon="-9.3366060">
        <ele>205.5</ele>
        <time>2019-02-10T10:22:43Z</time>
      </trkpt>
      <trkpt lat="38.8064870" lon="-9.3365470">
        <ele>205.5</ele>
        <time>2019-02-10T10:22:45Z</time>
      </trkpt>
      <trkpt lat="38.8065180" lon="-9.3364880">
        <ele>205.5</ele>
        <time>2019-02-10T10:22:47Z</time>
      </trkpt>
      <trkpt lat="38.8065480" lon="-9.3364280">
        <ele>205.5</ele>
        <time>2019-02-10T10:22:49Z</time>
      </trkpt>
      <trkpt lat="38.8065790" lon="-9.3363670">
        <ele>205.5</ele>
        <time>2019-02-10T10:22:51Z</time>
      </trkpt>
      <trkpt lat="38.8066070" lon="-9.3363080">
        <ele>205.5</ele>
        <time>2019-02-10T10:22:53Z</time>
      </trkpt>
      <trkpt lat="38.8066380" lon="-9.3362500">
        <ele>205.5</ele>
        <time>2019-02-10T10:22:55Z</time>
      </trkpt>
      <trkpt lat="38.8066660" lon="-9.3361860">
        <ele>205.5</ele>
        <time>2019-02-10T10:22:57Z</time>
      </trkpt>
      <trkpt lat="38.8066940" lon="-9.3361260">
        <ele>204.4</ele>
        <time>2019-02-10T10:22:59Z</time>
      </trkpt>
      <trkpt lat="38.8067170" lon="-9.3360690">
        <ele>204.4</ele>
        <time>2019-02-10T10:23:01Z</time>
      </trkpt>
      <trkpt lat="38.8067560" lon="-9.3359850">
        <ele>204.4</ele>
        <time>2019-02-10T10:23:04Z</time>
      </trkpt>
      <trkpt lat="38.8067890" lon="-9.3358940">
        <ele>204.4</ele>
        <time>2019-02-10T10:23:07Z</time>
      </trkpt>
      <trkpt lat="38.8068100" lon="-9.3358320">
        <ele>204.4</ele>
        <time>2019-02-10T10:23:09Z</time>
      </trkpt>
      <trkpt lat="38.8068280" lon="-9.3357700">
        <ele>204.4</ele>
        <time>2019-02-10T10:23:11Z</time>
      </trkpt>
      <trkpt lat="38.8068430" lon="-9.3357060">
        <ele>204.4</ele>
        <time>2019-02-10T10:23:13Z</time>
      </trkpt>
      <trkpt lat="38.8068580" lon="-9.3356410">
        <ele>204.4</ele>
        <time>2019-02-10T10:23:15Z</time>
      </trkpt>
      <trkpt lat="38.8068680" lon="-9.3355780">
        <ele>204.4</ele>
        <time>2019-02-10T10:23:17Z</time>
      </trkpt>
      <trkpt lat="38.8068840" lon="-9.3354810">
        <ele>204.4</ele>
        <time>2019-02-10T10:23:20Z</time>
      </trkpt>
      <trkpt lat="38.8068920" lon="-9.3354190">
        <ele>204.4</ele>
        <time>2019-02-10T10:23:22Z</time>
      </trkpt>
      <trkpt lat="38.8069070" lon="-9.3353280">
        <ele>204.4</ele>
        <time>2019-02-10T10:23:25Z</time>
      </trkpt>
      <trkpt lat="38.8069200" lon="-9.3352420">
        <ele>204.4</ele>
        <time>2019-02-10T10:23:28Z</time>
      </trkpt>
      <trkpt lat="38.8069450" lon="-9.3351570">
        <ele>204.4</ele>
        <time>2019-02-10T10:23:31Z</time>
      </trkpt>
      <trkpt lat="38.8069610" lon="-9.3350980">
        <ele>204.4</ele>
        <time>2019-02-10T10:23:33Z</time>
      </trkpt>
      <trkpt lat="38.8069990" lon="-9.3350450">
        <ele>203.2</ele>
        <time>2019-02-10T10:23:36Z</time>
      </trkpt>
      <trkpt lat="38.8070370" lon="-9.3350110">
        <ele>203.2</ele>
        <time>2019-02-10T10:23:38Z</time>
      </trkpt>
      <trkpt lat="38.8070940" lon="-9.3349310">
        <ele>203.2</ele>
        <time>2019-02-10T10:23:41Z</time>
      </trkpt>
      <trkpt lat="38.8071090" lon="-9.3348750">
        <ele>203.2</ele>
        <time>2019-02-10T10:23:43Z</time>
      </trkpt>
      <trkpt lat="38.8071370" lon="-9.3347870">
        <ele>203.2</ele>
        <time>2019-02-10T10:23:46Z</time>
      </trkpt>
      <trkpt lat="38.8071630" lon="-9.3347080">
        <ele>203.2</ele>
        <time>2019-02-10T10:23:49Z</time>
      </trkpt>
      <trkpt lat="38.8071830" lon="-9.3346190">
        <ele>203.2</ele>
        <time>2019-02-10T10:23:52Z</time>
      </trkpt>
      <trkpt lat="38.8071910" lon="-9.3345200">
        <ele>203.2</ele>
        <time>2019-02-10T10:23:55Z</time>
      </trkpt>
      <trkpt lat="38.8071760" lon="-9.3344560">
        <ele>203.2</ele>
        <time>2019-02-10T10:23:57Z</time>
      </trkpt>
      <trkpt lat="38.8071830" lon="-9.3343900">
        <ele>203.2</ele>
        <time>2019-02-10T10:23:59Z</time>
      </trkpt>
      <trkpt lat="38.8071990" lon="-9.3343250">
        <ele>203.2</ele>
        <time>2019-02-10T10:24:01Z</time>
      </trkpt>
      <trkpt lat="38.8072170" lon="-9.3342340">
        <ele>201.8</ele>
        <time>2019-02-10T10:24:04Z</time>
      </trkpt>
      <trkpt lat="38.8072650" lon="-9.3341700">
        <ele>201.8</ele>
        <time>2019-02-10T10:24:07Z</time>
      </trkpt>
      <trkpt lat="38.8073190" lon="-9.3341130">
        <ele>201.8</ele>
        <time>2019-02-10T10:24:10Z</time>
      </trkpt>
      <trkpt lat="38.8073730" lon="-9.3340590">
        <ele>199.0</ele>
        <time>2019-02-10T10:24:13Z</time>
      </trkpt>
      <trkpt lat="38.8074340" lon="-9.3340110">
        <ele>197.7</ele>
        <time>2019-02-10T10:24:16Z</time>
      </trkpt>
      <trkpt lat="38.8074880" lon="-9.3339580">
        <ele>197.7</ele>
        <time>2019-02-10T10:24:19Z</time>
      </trkpt>
      <trkpt lat="38.8075370" lon="-9.3339040">
        <ele>196.5</ele>
        <time>2019-02-10T10:24:22Z</time>
      </trkpt>
      <trkpt lat="38.8075900" lon="-9.3338410">
        <ele>196.5</ele>
        <time>2019-02-10T10:24:25Z</time>
      </trkpt>
      <trkpt lat="38.8076240" lon="-9.3338010">
        <ele>196.5</ele>
        <time>2019-02-10T10:24:27Z</time>
      </trkpt>
      <trkpt lat="38.8076850" lon="-9.3337340">
        <ele>196.5</ele>
        <time>2019-02-10T10:24:30Z</time>
      </trkpt>
      <trkpt lat="38.8077470" lon="-9.3336700">
        <ele>196.5</ele>
        <time>2019-02-10T10:24:32Z</time>
      </trkpt>
      <trkpt lat="38.8077590" lon="-9.3336590">
        <ele>196.5</ele>
        <time>2019-02-10T10:24:33Z</time>
      </trkpt>
      <trkpt lat="38.8078080" lon="-9.3336100">
        <ele>198.0</ele>
        <time>2019-02-10T10:24:36Z</time>
      </trkpt>
      <trkpt lat="38.8078690" lon="-9.3335470">
        <ele>199.3</ele>
        <time>2019-02-10T10:24:39Z</time>
      </trkpt>
      <trkpt lat="38.8079100" lon="-9.3335030">
        <ele>199.3</ele>
        <time>2019-02-10T10:24:41Z</time>
      </trkpt>
      <trkpt lat="38.8079540" lon="-9.3334580">
        <ele>199.3</ele>
        <time>2019-02-10T10:24:43Z</time>
      </trkpt>
      <trkpt lat="38.8079950" lon="-9.3334110">
        <ele>199.3</ele>
        <time>2019-02-10T10:24:45Z</time>
      </trkpt>
      <trkpt lat="38.8080330" lon="-9.3333670">
        <ele>199.3</ele>
        <time>2019-02-10T10:24:47Z</time>
      </trkpt>
      <trkpt lat="38.8080670" lon="-9.3333000">
        <ele>200.4</ele>
        <time>2019-02-10T10:24:49Z</time>
      </trkpt>
      <trkpt lat="38.8081020" lon="-9.3332400">
        <ele>200.4</ele>
        <time>2019-02-10T10:24:51Z</time>
      </trkpt>
      <trkpt lat="38.8081360" lon="-9.3331780">
        <ele>200.4</ele>
        <time>2019-02-10T10:24:53Z</time>
      </trkpt>
      <trkpt lat="38.8081640" lon="-9.3331140">
        <ele>200.4</ele>
        <time>2019-02-10T10:24:55Z</time>
      </trkpt>
      <trkpt lat="38.8081920" lon="-9.3330530">
        <ele>200.4</ele>
        <time>2019-02-10T10:24:57Z</time>
      </trkpt>
      <trkpt lat="38.8082280" lon="-9.3329890">
        <ele>201.6</ele>
        <time>2019-02-10T10:24:59Z</time>
      </trkpt>
      <trkpt lat="38.8082590" lon="-9.3329270">
        <ele>201.6</ele>
        <time>2019-02-10T10:25:01Z</time>
      </trkpt>
      <trkpt lat="38.8082840" lon="-9.3328600">
        <ele>201.6</ele>
        <time>2019-02-10T10:25:03Z</time>
      </trkpt>
      <trkpt lat="38.8083150" lon="-9.3327970">
        <ele>203.1</ele>
        <time>2019-02-10T10:25:05Z</time>
      </trkpt>
      <trkpt lat="38.8083460" lon="-9.3327330">
        <ele>203.1</ele>
        <time>2019-02-10T10:25:07Z</time>
      </trkpt>
      <trkpt lat="38.8083740" lon="-9.3326710">
        <ele>204.3</ele>
        <time>2019-02-10T10:25:09Z</time>
      </trkpt>
      <trkpt lat="38.8083990" lon="-9.3326130">
        <ele>204.3</ele>
        <time>2019-02-10T10:25:11Z</time>
      </trkpt>
      <trkpt lat="38.8084250" lon="-9.3325550">
        <ele>204.3</ele>
        <time>2019-02-10T10:25:13Z</time>
      </trkpt>
      <trkpt lat="38.8084560" lon="-9.3324990">
        <ele>204.3</ele>
        <time>2019-02-10T10:25:15Z</time>
      </trkpt>
      <trkpt lat="38.8084920" lon="-9.3324360">
        <ele>204.3</ele>
        <time>2019-02-10T10:25:17Z</time>
      </trkpt>
      <trkpt lat="38.8085220" lon="-9.3323820">
        <ele>204.3</ele>
        <time>2019-02-10T10:25:19Z</time>
      </trkpt>
      <trkpt lat="38.8085530" lon="-9.3323290">
        <ele>204.3</ele>
        <time>2019-02-10T10:25:21Z</time>
      </trkpt>
      <trkpt lat="38.8086500" lon="-9.3320570">
        <ele>204.3</ele>
        <time>2019-02-10T10:27:31Z</time>
      </trkpt>
      <trkpt lat="38.8086120" lon="-9.3319460">
        <ele>204.3</ele>
        <time>2019-02-10T10:27:34Z</time>
      </trkpt>
      <trkpt lat="38.8086270" lon="-9.3318840">
        <ele>204.3</ele>
        <time>2019-02-10T10:27:36Z</time>
      </trkpt>
      <trkpt lat="38.8086400" lon="-9.3318260">
        <ele>204.3</ele>
        <time>2019-02-10T10:27:38Z</time>
      </trkpt>
      <trkpt lat="38.8086090" lon="-9.3317420">
        <ele>204.3</ele>
        <time>2019-02-10T10:27:41Z</time>
      </trkpt>
      <trkpt lat="38.8085680" lon="-9.3316970">
        <ele>204.3</ele>
        <time>2019-02-10T10:27:43Z</time>
      </trkpt>
      <trkpt lat="38.8085020" lon="-9.3316290">
        <ele>205.5</ele>
        <time>2019-02-10T10:27:46Z</time>
      </trkpt>
      <trkpt lat="38.8084630" lon="-9.3315800">
        <ele>205.5</ele>
        <time>2019-02-10T10:27:48Z</time>
      </trkpt>
      <trkpt lat="38.8084170" lon="-9.3315280">
        <ele>206.9</ele>
        <time>2019-02-10T10:27:50Z</time>
      </trkpt>
      <trkpt lat="38.8083760" lon="-9.3314790">
        <ele>206.9</ele>
        <time>2019-02-10T10:27:52Z</time>
      </trkpt>
      <trkpt lat="38.8083380" lon="-9.3314320">
        <ele>208.4</ele>
        <time>2019-02-10T10:27:54Z</time>
      </trkpt>
      <trkpt lat="38.8083000" lon="-9.3313890">
        <ele>209.6</ele>
        <time>2019-02-10T10:27:56Z</time>
      </trkpt>
      <trkpt lat="38.8082430" lon="-9.3313220">
        <ele>211.3</ele>
        <time>2019-02-10T10:27:59Z</time>
      </trkpt>
      <trkpt lat="38.8082000" lon="-9.3312760">
        <ele>213.0</ele>
        <time>2019-02-10T10:28:01Z</time>
      </trkpt>
      <trkpt lat="38.8081640" lon="-9.3312360">
        <ele>213.0</ele>
        <time>2019-02-10T10:28:03Z</time>
      </trkpt>
      <trkpt lat="38.8081200" lon="-9.3311920">
        <ele>214.3</ele>
        <time>2019-02-10T10:28:05Z</time>
      </trkpt>
      <trkpt lat="38.8080790" lon="-9.3311490">
        <ele>214.3</ele>
        <time>2019-02-10T10:28:07Z</time>
      </trkpt>
      <trkpt lat="38.8080260" lon="-9.3310930">
        <ele>215.6</ele>
        <time>2019-02-10T10:28:10Z</time>
      </trkpt>
      <trkpt lat="38.8079690" lon="-9.3310330">
        <ele>216.8</ele>
        <time>2019-02-10T10:28:13Z</time>
      </trkpt>
      <trkpt lat="38.8079230" lon="-9.3309880">
        <ele>216.8</ele>
        <time>2019-02-10T10:28:15Z</time>
      </trkpt>
      <trkpt lat="38.8078800" lon="-9.3309460">
        <ele>218.2</ele>
        <time>2019-02-10T10:28:17Z</time>
      </trkpt>
      <trkpt lat="38.8078230" lon="-9.3308890">
        <ele>218.2</ele>
        <time>2019-02-10T10:28:20Z</time>
      </trkpt>
      <trkpt lat="38.8077750" lon="-9.3308350">
        <ele>219.5</ele>
        <time>2019-02-10T10:28:23Z</time>
      </trkpt>
      <trkpt lat="38.8077160" lon="-9.3307670">
        <ele>219.5</ele>
        <time>2019-02-10T10:28:26Z</time>
      </trkpt>
      <trkpt lat="38.8076750" lon="-9.3307210">
        <ele>220.9</ele>
        <time>2019-02-10T10:28:28Z</time>
      </trkpt>
      <trkpt lat="38.8076310" lon="-9.3306720">
        <ele>220.9</ele>
        <time>2019-02-10T10:28:30Z</time>
      </trkpt>
      <trkpt lat="38.8075880" lon="-9.3306250">
        <ele>220.9</ele>
        <time>2019-02-10T10:28:32Z</time>
      </trkpt>
      <trkpt lat="38.8075440" lon="-9.3305820">
        <ele>220.9</ele>
        <time>2019-02-10T10:28:34Z</time>
      </trkpt>
      <trkpt lat="38.8075060" lon="-9.3305430">
        <ele>220.9</ele>
        <time>2019-02-10T10:28:36Z</time>
      </trkpt>
      <trkpt lat="38.8074570" lon="-9.3304870">
        <ele>220.9</ele>
        <time>2019-02-10T10:28:39Z</time>
      </trkpt>
      <trkpt lat="38.8074190" lon="-9.3304460">
        <ele>220.9</ele>
        <time>2019-02-10T10:28:41Z</time>
      </trkpt>
      <trkpt lat="38.8073650" lon="-9.3303880">
        <ele>220.9</ele>
        <time>2019-02-10T10:28:44Z</time>
      </trkpt>
      <trkpt lat="38.8073040" lon="-9.3303240">
        <ele>222.1</ele>
        <time>2019-02-10T10:28:47Z</time>
      </trkpt>
      <trkpt lat="38.8072700" lon="-9.3302870">
        <ele>222.1</ele>
        <time>2019-02-10T10:28:49Z</time>
      </trkpt>
      <trkpt lat="38.8072240" lon="-9.3302370">
        <ele>222.1</ele>
        <time>2019-02-10T10:28:52Z</time>
      </trkpt>
      <trkpt lat="38.8071680" lon="-9.3301770">
        <ele>222.1</ele>
        <time>2019-02-10T10:28:55Z</time>
      </trkpt>
      <trkpt lat="38.8071300" lon="-9.3301340">
        <ele>222.1</ele>
        <time>2019-02-10T10:28:57Z</time>
      </trkpt>
      <trkpt lat="38.8070710" lon="-9.3300740">
        <ele>222.1</ele>
        <time>2019-02-10T10:29:00Z</time>
      </trkpt>
      <trkpt lat="38.8070300" lon="-9.3300470">
        <ele>222.1</ele>
        <time>2019-02-10T10:29:02Z</time>
      </trkpt>
      <trkpt lat="38.8069730" lon="-9.3300100">
        <ele>222.1</ele>
        <time>2019-02-10T10:29:05Z</time>
      </trkpt>
      <trkpt lat="38.8069070" lon="-9.3299570">
        <ele>222.1</ele>
        <time>2019-02-10T10:29:08Z</time>
      </trkpt>
      <trkpt lat="38.8068660" lon="-9.3299210">
        <ele>222.1</ele>
        <time>2019-02-10T10:29:10Z</time>
      </trkpt>
      <trkpt lat="38.8068020" lon="-9.3298690">
        <ele>222.1</ele>
        <time>2019-02-10T10:29:13Z</time>
      </trkpt>
      <trkpt lat="38.8067560" lon="-9.3298390">
        <ele>222.1</ele>
        <time>2019-02-10T10:29:15Z</time>
      </trkpt>
      <trkpt lat="38.8067050" lon="-9.3298110">
        <ele>222.1</ele>
        <time>2019-02-10T10:29:17Z</time>
      </trkpt>
      <trkpt lat="38.8066380" lon="-9.3297700">
        <ele>222.1</ele>
        <time>2019-02-10T10:29:20Z</time>
      </trkpt>
      <trkpt lat="38.8065720" lon="-9.3297310">
        <ele>220.9</ele>
        <time>2019-02-10T10:29:23Z</time>
      </trkpt>
      <trkpt lat="38.8065250" lon="-9.3297060">
        <ele>220.9</ele>
        <time>2019-02-10T10:29:25Z</time>
      </trkpt>
      <trkpt lat="38.8064460" lon="-9.3297140">
        <ele>220.9</ele>
        <time>2019-02-10T10:29:28Z</time>
      </trkpt>
      <trkpt lat="38.8064050" lon="-9.3297060">
        <ele>220.9</ele>
        <time>2019-02-10T10:29:30Z</time>
      </trkpt>
      <trkpt lat="38.8063280" lon="-9.3296970">
        <ele>220.9</ele>
        <time>2019-02-10T10:29:33Z</time>
      </trkpt>
      <trkpt lat="38.8062590" lon="-9.3296890">
        <ele>222.1</ele>
        <time>2019-02-10T10:29:36Z</time>
      </trkpt>
      <trkpt lat="38.8062110" lon="-9.3296860">
        <ele>222.1</ele>
        <time>2019-02-10T10:29:38Z</time>
      </trkpt>
      <trkpt lat="38.8061410" lon="-9.3296990">
        <ele>223.4</ele>
        <time>2019-02-10T10:29:41Z</time>
      </trkpt>
      <trkpt lat="38.8060600" lon="-9.3297350">
        <ele>223.4</ele>
        <time>2019-02-10T10:30:48Z</time>
      </trkpt>
      <trkpt lat="38.8059780" lon="-9.3296920">
        <ele>223.4</ele>
        <time>2019-02-10T10:30:53Z</time>
      </trkpt>
      <trkpt lat="38.8059030" lon="-9.3296750">
        <ele>222.3</ele>
        <time>2019-02-10T10:30:56Z</time>
      </trkpt>
      <trkpt lat="38.8058240" lon="-9.3296660">
        <ele>220.8</ele>
        <time>2019-02-10T10:30:59Z</time>
      </trkpt>
      <trkpt lat="38.8057630" lon="-9.3296600">
        <ele>220.8</ele>
        <time>2019-02-10T10:31:01Z</time>
      </trkpt>
      <trkpt lat="38.8057140" lon="-9.3296540">
        <ele>220.8</ele>
        <time>2019-02-10T10:31:03Z</time>
      </trkpt>
      <trkpt lat="38.8056580" lon="-9.3296460">
        <ele>220.8</ele>
        <time>2019-02-10T10:31:05Z</time>
      </trkpt>
      <trkpt lat="38.8056040" lon="-9.3296340">
        <ele>219.6</ele>
        <time>2019-02-10T10:31:07Z</time>
      </trkpt>
      <trkpt lat="38.8055600" lon="-9.3296010">
        <ele>219.6</ele>
        <time>2019-02-10T10:31:09Z</time>
      </trkpt>
      <trkpt lat="38.8055220" lon="-9.3295520">
        <ele>219.6</ele>
        <time>2019-02-10T10:31:11Z</time>
      </trkpt>
      <trkpt lat="38.8054550" lon="-9.3295070">
        <ele>219.6</ele>
        <time>2019-02-10T10:31:14Z</time>
      </trkpt>
      <trkpt lat="38.8054020" lon="-9.3294830">
        <ele>219.6</ele>
        <time>2019-02-10T10:31:16Z</time>
      </trkpt>
      <trkpt lat="38.8053480" lon="-9.3294630">
        <ele>220.9</ele>
        <time>2019-02-10T10:31:18Z</time>
      </trkpt>
      <trkpt lat="38.8052890" lon="-9.3294530">
        <ele>220.9</ele>
        <time>2019-02-10T10:31:20Z</time>
      </trkpt>
      <trkpt lat="38.8052380" lon="-9.3294440">
        <ele>222.1</ele>
        <time>2019-02-10T10:31:22Z</time>
      </trkpt>
      <trkpt lat="38.8051840" lon="-9.3294300">
        <ele>222.1</ele>
        <time>2019-02-10T10:31:24Z</time>
      </trkpt>
      <trkpt lat="38.8051300" lon="-9.3294120">
        <ele>222.1</ele>
        <time>2019-02-10T10:31:26Z</time>
      </trkpt>
      <trkpt lat="38.8050820" lon="-9.3293950">
        <ele>223.3</ele>
        <time>2019-02-10T10:31:28Z</time>
      </trkpt>
      <trkpt lat="38.8050230" lon="-9.3293750">
        <ele>223.3</ele>
        <time>2019-02-10T10:31:30Z</time>
      </trkpt>
      <trkpt lat="38.8049610" lon="-9.3293590">
        <ele>223.3</ele>
        <time>2019-02-10T10:31:32Z</time>
      </trkpt>
      <trkpt lat="38.8049020" lon="-9.3293420">
        <ele>223.3</ele>
        <time>2019-02-10T10:31:34Z</time>
      </trkpt>
      <trkpt lat="38.8048410" lon="-9.3293250">
        <ele>223.3</ele>
        <time>2019-02-10T10:31:36Z</time>
      </trkpt>
      <trkpt lat="38.8047870" lon="-9.3293250">
        <ele>223.3</ele>
        <time>2019-02-10T10:31:38Z</time>
      </trkpt>
      <trkpt lat="38.8047260" lon="-9.3293220">
        <ele>223.3</ele>
        <time>2019-02-10T10:31:40Z</time>
      </trkpt>
      <trkpt lat="38.8046690" lon="-9.3293130">
        <ele>223.3</ele>
        <time>2019-02-10T10:31:42Z</time>
      </trkpt>
      <trkpt lat="38.8046180" lon="-9.3292930">
        <ele>223.3</ele>
        <time>2019-02-10T10:31:44Z</time>
      </trkpt>
      <trkpt lat="38.8045700" lon="-9.3292670">
        <ele>223.3</ele>
        <time>2019-02-10T10:31:46Z</time>
      </trkpt>
      <trkpt lat="38.8045180" lon="-9.3292440">
        <ele>223.3</ele>
        <time>2019-02-10T10:31:48Z</time>
      </trkpt>
      <trkpt lat="38.8044750" lon="-9.3292100">
        <ele>223.3</ele>
        <time>2019-02-10T10:31:50Z</time>
      </trkpt>
      <trkpt lat="38.8044290" lon="-9.3291750">
        <ele>224.4</ele>
        <time>2019-02-10T10:31:52Z</time>
      </trkpt>
      <trkpt lat="38.8043830" lon="-9.3291460">
        <ele>224.4</ele>
        <time>2019-02-10T10:31:54Z</time>
      </trkpt>
      <trkpt lat="38.8043110" lon="-9.3291070">
        <ele>224.4</ele>
        <time>2019-02-10T10:31:57Z</time>
      </trkpt>
      <trkpt lat="38.8042600" lon="-9.3290780">
        <ele>224.4</ele>
        <time>2019-02-10T10:31:59Z</time>
      </trkpt>
      <trkpt lat="38.8042140" lon="-9.3290450">
        <ele>224.4</ele>
        <time>2019-02-10T10:32:01Z</time>
      </trkpt>
      <trkpt lat="38.8041730" lon="-9.3290170">
        <ele>224.4</ele>
        <time>2019-02-10T10:32:03Z</time>
      </trkpt>
      <trkpt lat="38.8041040" lon="-9.3289730">
        <ele>224.4</ele>
        <time>2019-02-10T10:32:06Z</time>
      </trkpt>
      <trkpt lat="38.8040420" lon="-9.3289320">
        <ele>224.4</ele>
        <time>2019-02-10T10:32:09Z</time>
      </trkpt>
      <trkpt lat="38.8039810" lon="-9.3288970">
        <ele>224.4</ele>
        <time>2019-02-10T10:32:12Z</time>
      </trkpt>
      <trkpt lat="38.8039170" lon="-9.3288560">
        <ele>224.4</ele>
        <time>2019-02-10T10:32:15Z</time>
      </trkpt>
      <trkpt lat="38.8038530" lon="-9.3288110">
        <ele>224.4</ele>
        <time>2019-02-10T10:32:18Z</time>
      </trkpt>
      <trkpt lat="38.8038070" lon="-9.3287820">
        <ele>224.4</ele>
        <time>2019-02-10T10:32:20Z</time>
      </trkpt>
      <trkpt lat="38.8037430" lon="-9.3287370">
        <ele>224.4</ele>
        <time>2019-02-10T10:32:23Z</time>
      </trkpt>
      <trkpt lat="38.8036970" lon="-9.3287070">
        <ele>224.4</ele>
        <time>2019-02-10T10:32:25Z</time>
      </trkpt>
      <trkpt lat="38.8036300" lon="-9.3286670">
        <ele>224.4</ele>
        <time>2019-02-10T10:32:28Z</time>
      </trkpt>
      <trkpt lat="38.8035610" lon="-9.3286200">
        <ele>225.6</ele>
        <time>2019-02-10T10:32:31Z</time>
      </trkpt>
      <trkpt lat="38.8035200" lon="-9.3285890">
        <ele>225.6</ele>
        <time>2019-02-10T10:32:33Z</time>
      </trkpt>
      <trkpt lat="38.8034510" lon="-9.3285410">
        <ele>225.6</ele>
        <time>2019-02-10T10:32:36Z</time>
      </trkpt>
      <trkpt lat="38.8034100" lon="-9.3285080">
        <ele>227.0</ele>
        <time>2019-02-10T10:32:38Z</time>
      </trkpt>
      <trkpt lat="38.8033640" lon="-9.3284730">
        <ele>228.4</ele>
        <time>2019-02-10T10:32:40Z</time>
      </trkpt>
      <trkpt lat="38.8033180" lon="-9.3284380">
        <ele>228.4</ele>
        <time>2019-02-10T10:32:42Z</time>
      </trkpt>
      <trkpt lat="38.8032560" lon="-9.3283850">
        <ele>228.4</ele>
        <time>2019-02-10T10:32:45Z</time>
      </trkpt>
      <trkpt lat="38.8032100" lon="-9.3283480">
        <ele>228.4</ele>
        <time>2019-02-10T10:32:47Z</time>
      </trkpt>
      <trkpt lat="38.8031510" lon="-9.3282970">
        <ele>229.5</ele>
        <time>2019-02-10T10:32:50Z</time>
      </trkpt>
      <trkpt lat="38.8030850" lon="-9.3282410">
        <ele>229.5</ele>
        <time>2019-02-10T10:32:53Z</time>
      </trkpt>
      <trkpt lat="38.8030440" lon="-9.3282070">
        <ele>229.5</ele>
        <time>2019-02-10T10:32:55Z</time>
      </trkpt>
      <trkpt lat="38.8029980" lon="-9.3281670">
        <ele>229.5</ele>
        <time>2019-02-10T10:32:57Z</time>
      </trkpt>
      <trkpt lat="38.8029520" lon="-9.3281290">
        <ele>229.5</ele>
        <time>2019-02-10T10:32:59Z</time>
      </trkpt>
      <trkpt lat="38.8029110" lon="-9.3280930">
        <ele>229.5</ele>
        <time>2019-02-10T10:33:01Z</time>
      </trkpt>
      <trkpt lat="38.8028650" lon="-9.3280560">
        <ele>229.5</ele>
        <time>2019-02-10T10:33:03Z</time>
      </trkpt>
      <trkpt lat="38.8027980" lon="-9.3280030">
        <ele>229.5</ele>
        <time>2019-02-10T10:33:06Z</time>
      </trkpt>
      <trkpt lat="38.8027570" lon="-9.3279690">
        <ele>229.5</ele>
        <time>2019-02-10T10:33:08Z</time>
      </trkpt>
      <trkpt lat="38.8026960" lon="-9.3279180">
        <ele>229.5</ele>
        <time>2019-02-10T10:33:11Z</time>
      </trkpt>
      <trkpt lat="38.8026390" lon="-9.3278690">
        <ele>229.5</ele>
        <time>2019-02-10T10:33:14Z</time>
      </trkpt>
      <trkpt lat="38.8025780" lon="-9.3278190">
        <ele>228.2</ele>
        <time>2019-02-10T10:33:17Z</time>
      </trkpt>
      <trkpt lat="38.8025320" lon="-9.3277800">
        <ele>228.2</ele>
        <time>2019-02-10T10:33:19Z</time>
      </trkpt>
      <trkpt lat="38.8024910" lon="-9.3277480">
        <ele>228.2</ele>
        <time>2019-02-10T10:33:21Z</time>
      </trkpt>
      <trkpt lat="38.8024240" lon="-9.3276990">
        <ele>228.2</ele>
        <time>2019-02-10T10:33:24Z</time>
      </trkpt>
      <trkpt lat="38.8023810" lon="-9.3276650">
        <ele>228.2</ele>
        <time>2019-02-10T10:33:26Z</time>
      </trkpt>
      <trkpt lat="38.8023370" lon="-9.3276310">
        <ele>228.2</ele>
        <time>2019-02-10T10:33:28Z</time>
      </trkpt>
      <trkpt lat="38.8022730" lon="-9.3275820">
        <ele>228.2</ele>
        <time>2019-02-10T10:33:31Z</time>
      </trkpt>
      <trkpt lat="38.8022270" lon="-9.3275440">
        <ele>228.2</ele>
        <time>2019-02-10T10:33:33Z</time>
      </trkpt>
      <trkpt lat="38.8021810" lon="-9.3275090">
        <ele>228.2</ele>
        <time>2019-02-10T10:33:35Z</time>
      </trkpt>
      <trkpt lat="38.8021400" lon="-9.3274760">
        <ele>228.2</ele>
        <time>2019-02-10T10:33:37Z</time>
      </trkpt>
      <trkpt lat="38.8020660" lon="-9.3274230">
        <ele>228.2</ele>
        <time>2019-02-10T10:33:40Z</time>
      </trkpt>
      <trkpt lat="38.8020250" lon="-9.3273890">
        <ele>228.2</ele>
        <time>2019-02-10T10:33:42Z</time>
      </trkpt>
      <trkpt lat="38.8019790" lon="-9.3273560">
        <ele>228.2</ele>
        <time>2019-02-10T10:33:44Z</time>
      </trkpt>
      <trkpt lat="38.8019330" lon="-9.3273250">
        <ele>228.2</ele>
        <time>2019-02-10T10:33:46Z</time>
      </trkpt>
      <trkpt lat="38.8018870" lon="-9.3272960">
        <ele>228.2</ele>
        <time>2019-02-10T10:33:48Z</time>
      </trkpt>
      <trkpt lat="38.8018180" lon="-9.3272510">
        <ele>228.2</ele>
        <time>2019-02-10T10:33:51Z</time>
      </trkpt>
      <trkpt lat="38.8017740" lon="-9.3272230">
        <ele>228.2</ele>
        <time>2019-02-10T10:33:53Z</time>
      </trkpt>
      <trkpt lat="38.8017050" lon="-9.3271790">
        <ele>228.2</ele>
        <time>2019-02-10T10:33:56Z</time>
      </trkpt>
      <trkpt lat="38.8016590" lon="-9.3271500">
        <ele>228.2</ele>
        <time>2019-02-10T10:33:58Z</time>
      </trkpt>
      <trkpt lat="38.8015970" lon="-9.3271100">
        <ele>228.2</ele>
        <time>2019-02-10T10:34:01Z</time>
      </trkpt>
      <trkpt lat="38.8015360" lon="-9.3270640">
        <ele>226.9</ele>
        <time>2019-02-10T10:34:04Z</time>
      </trkpt>
      <trkpt lat="38.8014870" lon="-9.3270280">
        <ele>226.9</ele>
        <time>2019-02-10T10:34:06Z</time>
      </trkpt>
      <trkpt lat="38.8014410" lon="-9.3269940">
        <ele>226.9</ele>
        <time>2019-02-10T10:34:08Z</time>
      </trkpt>
      <trkpt lat="38.8014000" lon="-9.3269630">
        <ele>226.9</ele>
        <time>2019-02-10T10:34:10Z</time>
      </trkpt>
      <trkpt lat="38.8013340" lon="-9.3269180">
        <ele>226.9</ele>
        <time>2019-02-10T10:34:13Z</time>
      </trkpt>
      <trkpt lat="38.8012930" lon="-9.3268880">
        <ele>228.4</ele>
        <time>2019-02-10T10:34:15Z</time>
      </trkpt>
      <trkpt lat="38.8012240" lon="-9.3268400">
        <ele>228.4</ele>
        <time>2019-02-10T10:34:18Z</time>
      </trkpt>
      <trkpt lat="38.8011600" lon="-9.3267890">
        <ele>229.7</ele>
        <time>2019-02-10T10:34:21Z</time>
      </trkpt>
      <trkpt lat="38.8011160" lon="-9.3267520">
        <ele>229.7</ele>
        <time>2019-02-10T10:34:23Z</time>
      </trkpt>
      <trkpt lat="38.8010700" lon="-9.3267160">
        <ele>230.9</ele>
        <time>2019-02-10T10:34:25Z</time>
      </trkpt>
      <trkpt lat="38.8010270" lon="-9.3266800">
        <ele>230.9</ele>
        <time>2019-02-10T10:34:27Z</time>
      </trkpt>
      <trkpt lat="38.8009680" lon="-9.3266300">
        <ele>232.2</ele>
        <time>2019-02-10T10:34:30Z</time>
      </trkpt>
      <trkpt lat="38.8008990" lon="-9.3265750">
        <ele>232.2</ele>
        <time>2019-02-10T10:34:33Z</time>
      </trkpt>
      <trkpt lat="38.8008580" lon="-9.3265430">
        <ele>232.2</ele>
        <time>2019-02-10T10:34:35Z</time>
      </trkpt>
      <trkpt lat="38.8007940" lon="-9.3264920">
        <ele>232.2</ele>
        <time>2019-02-10T10:34:38Z</time>
      </trkpt>
      <trkpt lat="38.8007480" lon="-9.3264570">
        <ele>232.2</ele>
        <time>2019-02-10T10:34:40Z</time>
      </trkpt>
      <trkpt lat="38.8007010" lon="-9.3264240">
        <ele>232.2</ele>
        <time>2019-02-10T10:34:42Z</time>
      </trkpt>
      <trkpt lat="38.8006530" lon="-9.3263870">
        <ele>232.2</ele>
        <time>2019-02-10T10:34:44Z</time>
      </trkpt>
      <trkpt lat="38.8005990" lon="-9.3263810">
        <ele>232.2</ele>
        <time>2019-02-10T10:34:46Z</time>
      </trkpt>
      <trkpt lat="38.8005480" lon="-9.3263770">
        <ele>232.2</ele>
        <time>2019-02-10T10:34:48Z</time>
      </trkpt>
      <trkpt lat="38.8004990" lon="-9.3263610">
        <ele>232.2</ele>
        <time>2019-02-10T10:34:50Z</time>
      </trkpt>
      <trkpt lat="38.8004220" lon="-9.3263300">
        <ele>235.6</ele>
        <time>2019-02-10T10:34:53Z</time>
      </trkpt>
      <trkpt lat="38.8003740" lon="-9.3263180">
        <ele>235.6</ele>
        <time>2019-02-10T10:34:55Z</time>
      </trkpt>
      <trkpt lat="38.8003230" lon="-9.3263210">
        <ele>237.0</ele>
        <time>2019-02-10T10:34:57Z</time>
      </trkpt>
      <trkpt lat="38.8002510" lon="-9.3263270">
        <ele>237.0</ele>
        <time>2019-02-10T10:35:00Z</time>
      </trkpt>
      <trkpt lat="38.8001790" lon="-9.3263400">
        <ele>238.3</ele>
        <time>2019-02-10T10:35:03Z</time>
      </trkpt>
      <trkpt lat="38.8001130" lon="-9.3263500">
        <ele>238.3</ele>
        <time>2019-02-10T10:35:05Z</time>
      </trkpt>
      <trkpt lat="38.8000560" lon="-9.3263900">
        <ele>238.3</ele>
        <time>2019-02-10T10:35:08Z</time>
      </trkpt>
      <trkpt lat="38.8000230" lon="-9.3264370">
        <ele>238.3</ele>
        <time>2019-02-10T10:35:10Z</time>
      </trkpt>
      <trkpt lat="38.7999800" lon="-9.3265210">
        <ele>238.3</ele>
        <time>2019-02-10T10:35:13Z</time>
      </trkpt>
      <trkpt lat="38.7999490" lon="-9.3265800">
        <ele>238.3</ele>
        <time>2019-02-10T10:35:15Z</time>
      </trkpt>
      <trkpt lat="38.7999180" lon="-9.3266400">
        <ele>236.9</ele>
        <time>2019-02-10T10:35:17Z</time>
      </trkpt>
      <trkpt lat="38.7998850" lon="-9.3267010">
        <ele>236.9</ele>
        <time>2019-02-10T10:35:19Z</time>
      </trkpt>
      <trkpt lat="38.7998540" lon="-9.3267650">
        <ele>235.7</ele>
        <time>2019-02-10T10:35:21Z</time>
      </trkpt>
      <trkpt lat="38.7998230" lon="-9.3268210">
        <ele>235.7</ele>
        <time>2019-02-10T10:35:23Z</time>
      </trkpt>
      <trkpt lat="38.7997700" lon="-9.3268970">
        <ele>234.4</ele>
        <time>2019-02-10T10:35:26Z</time>
      </trkpt>
      <trkpt lat="38.7997310" lon="-9.3269590">
        <ele>234.4</ele>
        <time>2019-02-10T10:35:28Z</time>
      </trkpt>
      <trkpt lat="38.7996930" lon="-9.3270230">
        <ele>233.0</ele>
        <time>2019-02-10T10:35:30Z</time>
      </trkpt>
      <trkpt lat="38.7996570" lon="-9.3270870">
        <ele>233.0</ele>
        <time>2019-02-10T10:35:32Z</time>
      </trkpt>
      <trkpt lat="38.7996210" lon="-9.3271510">
        <ele>234.3</ele>
        <time>2019-02-10T10:35:34Z</time>
      </trkpt>
      <trkpt lat="38.7995880" lon="-9.3272160">
        <ele>234.3</ele>
        <time>2019-02-10T10:35:36Z</time>
      </trkpt>
      <trkpt lat="38.7995570" lon="-9.3272720">
        <ele>234.3</ele>
        <time>2019-02-10T10:35:38Z</time>
      </trkpt>
      <trkpt lat="38.7994930" lon="-9.3273360">
        <ele>234.3</ele>
        <time>2019-02-10T10:35:41Z</time>
      </trkpt>
      <trkpt lat="38.7994190" lon="-9.3273890">
        <ele>234.3</ele>
        <time>2019-02-10T10:35:44Z</time>
      </trkpt>
      <trkpt lat="38.7993780" lon="-9.3274320">
        <ele>234.3</ele>
        <time>2019-02-10T10:35:46Z</time>
      </trkpt>
      <trkpt lat="38.7993340" lon="-9.3274820">
        <ele>234.3</ele>
        <time>2019-02-10T10:35:48Z</time>
      </trkpt>
      <trkpt lat="38.7992990" lon="-9.3275350">
        <ele>234.3</ele>
        <time>2019-02-10T10:35:50Z</time>
      </trkpt>
      <trkpt lat="38.7992680" lon="-9.3275970">
        <ele>234.3</ele>
        <time>2019-02-10T10:35:52Z</time>
      </trkpt>
      <trkpt lat="38.7992450" lon="-9.3276610">
        <ele>234.3</ele>
        <time>2019-02-10T10:35:54Z</time>
      </trkpt>
      <trkpt lat="38.7992060" lon="-9.3277120">
        <ele>234.3</ele>
        <time>2019-02-10T10:35:56Z</time>
      </trkpt>
      <trkpt lat="38.7991630" lon="-9.3277600">
        <ele>234.3</ele>
        <time>2019-02-10T10:35:58Z</time>
      </trkpt>
      <trkpt lat="38.7991170" lon="-9.3278050">
        <ele>231.5</ele>
        <time>2019-02-10T10:36:00Z</time>
      </trkpt>
      <trkpt lat="38.7990760" lon="-9.3278440">
        <ele>229.9</ele>
        <time>2019-02-10T10:36:02Z</time>
      </trkpt>
      <trkpt lat="38.7990350" lon="-9.3278810">
        <ele>229.9</ele>
        <time>2019-02-10T10:36:04Z</time>
      </trkpt>
      <trkpt lat="38.7989730" lon="-9.3279410">
        <ele>228.6</ele>
        <time>2019-02-10T10:36:07Z</time>
      </trkpt>
      <trkpt lat="38.7989300" lon="-9.3279810">
        <ele>228.6</ele>
        <time>2019-02-10T10:36:09Z</time>
      </trkpt>
      <trkpt lat="38.7988940" lon="-9.3280510">
        <ele>227.2</ele>
        <time>2019-02-10T10:36:12Z</time>
      </trkpt>
      <trkpt lat="38.7988580" lon="-9.3281080">
        <ele>227.2</ele>
        <time>2019-02-10T10:36:14Z</time>
      </trkpt>
      <trkpt lat="38.7988170" lon="-9.3281540">
        <ele>226.0</ele>
        <time>2019-02-10T10:36:16Z</time>
      </trkpt>
      <trkpt lat="38.7987660" lon="-9.3281860">
        <ele>226.0</ele>
        <time>2019-02-10T10:36:18Z</time>
      </trkpt>
      <trkpt lat="38.7987170" lon="-9.3282120">
        <ele>226.0</ele>
        <time>2019-02-10T10:36:20Z</time>
      </trkpt>
      <trkpt lat="38.7986690" lon="-9.3282460">
        <ele>226.0</ele>
        <time>2019-02-10T10:36:23Z</time>
      </trkpt>
      <trkpt lat="38.7986150" lon="-9.3282890">
        <ele>226.0</ele>
        <time>2019-02-10T10:36:24Z</time>
      </trkpt>
      <trkpt lat="38.7985640" lon="-9.3283310">
        <ele>226.0</ele>
        <time>2019-02-10T10:36:26Z</time>
      </trkpt>
      <trkpt lat="38.7985130" lon="-9.3283730">
        <ele>226.0</ele>
        <time>2019-02-10T10:36:28Z</time>
      </trkpt>
      <trkpt lat="38.7984540" lon="-9.3284160">
        <ele>226.0</ele>
        <time>2019-02-10T10:36:30Z</time>
      </trkpt>
      <trkpt lat="38.7983920" lon="-9.3284580">
        <ele>226.0</ele>
        <time>2019-02-10T10:36:32Z</time>
      </trkpt>
      <trkpt lat="38.7983330" lon="-9.3284980">
        <ele>226.0</ele>
        <time>2019-02-10T10:36:34Z</time>
      </trkpt>
      <trkpt lat="38.7982870" lon="-9.3285320">
        <ele>226.0</ele>
        <time>2019-02-10T10:36:36Z</time>
      </trkpt>
      <trkpt lat="38.7982520" lon="-9.3285870">
        <ele>223.9</ele>
        <time>2019-02-10T10:36:38Z</time>
      </trkpt>
      <trkpt lat="38.7982130" lon="-9.3286480">
        <ele>222.4</ele>
        <time>2019-02-10T10:36:40Z</time>
      </trkpt>
      <trkpt lat="38.7981820" lon="-9.3287000">
        <ele>222.4</ele>
        <time>2019-02-10T10:36:42Z</time>
      </trkpt>
      <trkpt lat="38.7981490" lon="-9.3287450">
        <ele>221.3</ele>
        <time>2019-02-10T10:36:44Z</time>
      </trkpt>
      <trkpt lat="38.7980930" lon="-9.3288090">
        <ele>221.3</ele>
        <time>2019-02-10T10:36:47Z</time>
      </trkpt>
      <trkpt lat="38.7980310" lon="-9.3288730">
        <ele>221.3</ele>
        <time>2019-02-10T10:36:50Z</time>
      </trkpt>
      <trkpt lat="38.7979930" lon="-9.3289100">
        <ele>221.3</ele>
        <time>2019-02-10T10:36:52Z</time>
      </trkpt>
      <trkpt lat="38.7979470" lon="-9.3289480">
        <ele>221.3</ele>
        <time>2019-02-10T10:36:54Z</time>
      </trkpt>
      <trkpt lat="38.7978750" lon="-9.3290060">
        <ele>221.3</ele>
        <time>2019-02-10T10:36:57Z</time>
      </trkpt>
      <trkpt lat="38.7978240" lon="-9.3290430">
        <ele>221.3</ele>
        <time>2019-02-10T10:36:59Z</time>
      </trkpt>
      <trkpt lat="38.7977700" lon="-9.3291010">
        <ele>221.3</ele>
        <time>2019-02-10T10:37:02Z</time>
      </trkpt>
      <trkpt lat="38.7977420" lon="-9.3291400">
        <ele>221.3</ele>
        <time>2019-02-10T10:37:04Z</time>
      </trkpt>
      <trkpt lat="38.7976880" lon="-9.3292060">
        <ele>221.3</ele>
        <time>2019-02-10T10:37:07Z</time>
      </trkpt>
      <trkpt lat="38.7976520" lon="-9.3292530">
        <ele>221.3</ele>
        <time>2019-02-10T10:37:09Z</time>
      </trkpt>
      <trkpt lat="38.7976140" lon="-9.3293010">
        <ele>220.0</ele>
        <time>2019-02-10T10:37:11Z</time>
      </trkpt>
      <trkpt lat="38.7975630" lon="-9.3293740">
        <ele>220.0</ele>
        <time>2019-02-10T10:37:14Z</time>
      </trkpt>
      <trkpt lat="38.7975190" lon="-9.3294250">
        <ele>220.0</ele>
        <time>2019-02-10T10:37:16Z</time>
      </trkpt>
      <trkpt lat="38.7974780" lon="-9.3294770">
        <ele>220.0</ele>
        <time>2019-02-10T10:37:18Z</time>
      </trkpt>
      <trkpt lat="38.7974430" lon="-9.3295160">
        <ele>218.4</ele>
        <time>2019-02-10T10:37:20Z</time>
      </trkpt>
      <trkpt lat="38.7973860" lon="-9.3295880">
        <ele>217.3</ele>
        <time>2019-02-10T10:37:23Z</time>
      </trkpt>
      <trkpt lat="38.7973400" lon="-9.3296490">
        <ele>215.7</ele>
        <time>2019-02-10T10:37:25Z</time>
      </trkpt>
      <trkpt lat="38.7973070" lon="-9.3297110">
        <ele>215.7</ele>
        <time>2019-02-10T10:37:27Z</time>
      </trkpt>
      <trkpt lat="38.7972710" lon="-9.3297590">
        <ele>214.4</ele>
        <time>2019-02-10T10:37:29Z</time>
      </trkpt>
      <trkpt lat="38.7972300" lon="-9.3297930">
        <ele>214.4</ele>
        <time>2019-02-10T10:37:31Z</time>
      </trkpt>
      <trkpt lat="38.7971660" lon="-9.3298380">
        <ele>213.1</ele>
        <time>2019-02-10T10:37:34Z</time>
      </trkpt>
      <trkpt lat="38.7971070" lon="-9.3298760">
        <ele>211.9</ele>
        <time>2019-02-10T10:37:36Z</time>
      </trkpt>
      <trkpt lat="38.7970430" lon="-9.3299030">
        <ele>210.7</ele>
        <time>2019-02-10T10:37:38Z</time>
      </trkpt>
      <trkpt lat="38.7969820" lon="-9.3299350">
        <ele>209.5</ele>
        <time>2019-02-10T10:37:40Z</time>
      </trkpt>
      <trkpt lat="38.7969330" lon="-9.3299840">
        <ele>209.5</ele>
        <time>2019-02-10T10:37:42Z</time>
      </trkpt>
      <trkpt lat="38.7968900" lon="-9.3300440">
        <ele>209.5</ele>
        <time>2019-02-10T10:37:44Z</time>
      </trkpt>
      <trkpt lat="38.7968590" lon="-9.3301040">
        <ele>209.5</ele>
        <time>2019-02-10T10:37:46Z</time>
      </trkpt>
      <trkpt lat="38.7968260" lon="-9.3301580">
        <ele>209.5</ele>
        <time>2019-02-10T10:37:48Z</time>
      </trkpt>
      <trkpt lat="38.7967870" lon="-9.3302090">
        <ele>209.5</ele>
        <time>2019-02-10T10:37:50Z</time>
      </trkpt>
      <trkpt lat="38.7967620" lon="-9.3302620">
        <ele>209.5</ele>
        <time>2019-02-10T10:37:52Z</time>
      </trkpt>
      <trkpt lat="38.7967000" lon="-9.3303000">
        <ele>209.5</ele>
        <time>2019-02-10T10:37:55Z</time>
      </trkpt>
      <trkpt lat="38.7966490" lon="-9.3303050">
        <ele>208.2</ele>
        <time>2019-02-10T10:37:57Z</time>
      </trkpt>
      <trkpt lat="38.7965820" lon="-9.3302790">
        <ele>208.2</ele>
        <time>2019-02-10T10:38:00Z</time>
      </trkpt>
      <trkpt lat="38.7965240" lon="-9.3302280">
        <ele>208.2</ele>
        <time>2019-02-10T10:38:03Z</time>
      </trkpt>
      <trkpt lat="38.7964770" lon="-9.3301610">
        <ele>208.2</ele>
        <time>2019-02-10T10:38:06Z</time>
      </trkpt>
      <trkpt lat="38.7964360" lon="-9.3301130">
        <ele>208.2</ele>
        <time>2019-02-10T10:38:09Z</time>
      </trkpt>
      <trkpt lat="38.7963720" lon="-9.3300760">
        <ele>208.2</ele>
        <time>2019-02-10T10:38:12Z</time>
      </trkpt>
      <trkpt lat="38.7963190" lon="-9.3300470">
        <ele>206.5</ele>
        <time>2019-02-10T10:38:16Z</time>
      </trkpt>
      <trkpt lat="38.7962570" lon="-9.3300220">
        <ele>205.3</ele>
        <time>2019-02-10T10:38:20Z</time>
      </trkpt>
      <trkpt lat="38.7961860" lon="-9.3300290">
        <ele>203.8</ele>
        <time>2019-02-10T10:38:23Z</time>
      </trkpt>
      <trkpt lat="38.7961090" lon="-9.3296630">
        <ele>203.8</ele>
        <time>2019-02-10T10:39:47Z</time>
      </trkpt>
      <trkpt lat="38.7960650" lon="-9.3296010">
        <ele>202.4</ele>
        <time>2019-02-10T10:39:52Z</time>
      </trkpt>
      <trkpt lat="38.7959940" lon="-9.3295830">
        <ele>202.4</ele>
        <time>2019-02-10T10:39:55Z</time>
      </trkpt>
      <trkpt lat="38.7959220" lon="-9.3295800">
        <ele>199.5</ele>
        <time>2019-02-10T10:39:58Z</time>
      </trkpt>
      <trkpt lat="38.7958630" lon="-9.3295810">
        <ele>199.5</ele>
        <time>2019-02-10T10:40:00Z</time>
      </trkpt>
      <trkpt lat="38.7958070" lon="-9.3295710">
        <ele>199.5</ele>
        <time>2019-02-10T10:40:02Z</time>
      </trkpt>
      <trkpt lat="38.7957500" lon="-9.3295540">
        <ele>201.0</ele>
        <time>2019-02-10T10:40:04Z</time>
      </trkpt>
      <trkpt lat="38.7956890" lon="-9.3295310">
        <ele>201.0</ele>
        <time>2019-02-10T10:40:06Z</time>
      </trkpt>
      <trkpt lat="38.7956250" lon="-9.3294980">
        <ele>202.2</ele>
        <time>2019-02-10T10:40:08Z</time>
      </trkpt>
      <trkpt lat="38.7955740" lon="-9.3294420">
        <ele>202.2</ele>
        <time>2019-02-10T10:40:10Z</time>
      </trkpt>
      <trkpt lat="38.7955330" lon="-9.3293720">
        <ele>202.2</ele>
        <time>2019-02-10T10:40:12Z</time>
      </trkpt>
      <trkpt lat="38.7954820" lon="-9.3293080">
        <ele>202.2</ele>
        <time>2019-02-10T10:40:14Z</time>
      </trkpt>
      <trkpt lat="38.7954380" lon="-9.3292520">
        <ele>202.2</ele>
        <time>2019-02-10T10:40:16Z</time>
      </trkpt>
      <trkpt lat="38.7953950" lon="-9.3292120">
        <ele>202.2</ele>
        <time>2019-02-10T10:40:18Z</time>
      </trkpt>
      <trkpt lat="38.7953560" lon="-9.3291800">
        <ele>202.2</ele>
        <time>2019-02-10T10:40:20Z</time>
      </trkpt>
      <trkpt lat="38.7953150" lon="-9.3291420">
        <ele>202.2</ele>
        <time>2019-02-10T10:40:23Z</time>
      </trkpt>
      <trkpt lat="38.7952540" lon="-9.3290980">
        <ele>202.2</ele>
        <time>2019-02-10T10:40:26Z</time>
      </trkpt>
      <trkpt lat="38.7952230" lon="-9.3290720">
        <ele>202.2</ele>
        <time>2019-02-10T10:40:27Z</time>
      </trkpt>
      <trkpt lat="38.7948750" lon="-9.3292330">
        <ele>239.9</ele>
        <time>2019-02-10T10:43:00Z</time>
      </trkpt>
      <trkpt lat="38.7948830" lon="-9.3292170">
        <ele>239.9</ele>
        <time>2019-02-10T10:43:01Z</time>
      </trkpt>
      <trkpt lat="38.7948670" lon="-9.3292120">
        <ele>239.9</ele>
        <time>2019-02-10T10:43:02Z</time>
      </trkpt>
      <trkpt lat="38.7948650" lon="-9.3291900">
        <ele>239.9</ele>
        <time>2019-02-10T10:43:03Z</time>
      </trkpt>
      <trkpt lat="38.7948470" lon="-9.3291830">
        <ele>239.9</ele>
        <time>2019-02-10T10:43:04Z</time>
      </trkpt>
      <trkpt lat="38.7948190" lon="-9.3291650">
        <ele>239.9</ele>
        <time>2019-02-10T10:43:05Z</time>
      </trkpt>
      <trkpt lat="38.7947470" lon="-9.3291720">
        <ele>239.9</ele>
        <time>2019-02-10T10:43:07Z</time>
      </trkpt>
      <trkpt lat="38.7947080" lon="-9.3291050">
        <ele>239.9</ele>
        <time>2019-02-10T10:43:09Z</time>
      </trkpt>
      <trkpt lat="38.7946550" lon="-9.3290750">
        <ele>239.9</ele>
        <time>2019-02-10T10:43:11Z</time>
      </trkpt>
      <trkpt lat="38.7945910" lon="-9.3290500">
        <ele>239.9</ele>
        <time>2019-02-10T10:43:14Z</time>
      </trkpt>
      <trkpt lat="38.7945240" lon="-9.3290390">
        <ele>241.1</ele>
        <time>2019-02-10T10:43:16Z</time>
      </trkpt>
      <trkpt lat="38.7944730" lon="-9.3289950">
        <ele>241.1</ele>
        <time>2019-02-10T10:43:18Z</time>
      </trkpt>
      <trkpt lat="38.7944270" lon="-9.3289790">
        <ele>242.7</ele>
        <time>2019-02-10T10:43:20Z</time>
      </trkpt>
      <trkpt lat="38.7943650" lon="-9.3289550">
        <ele>242.7</ele>
        <time>2019-02-10T10:43:22Z</time>
      </trkpt>
      <trkpt lat="38.7943140" lon="-9.3288750">
        <ele>242.7</ele>
        <time>2019-02-10T10:43:24Z</time>
      </trkpt>
      <trkpt lat="38.7942710" lon="-9.3288070">
        <ele>244.1</ele>
        <time>2019-02-10T10:43:26Z</time>
      </trkpt>
      <trkpt lat="38.7942350" lon="-9.3287420">
        <ele>244.1</ele>
        <time>2019-02-10T10:43:28Z</time>
      </trkpt>
      <trkpt lat="38.7942020" lon="-9.3286930">
        <ele>244.1</ele>
        <time>2019-02-10T10:43:30Z</time>
      </trkpt>
      <trkpt lat="38.7941350" lon="-9.3286170">
        <ele>244.1</ele>
        <time>2019-02-10T10:43:33Z</time>
      </trkpt>
      <trkpt lat="38.7940920" lon="-9.3285210">
        <ele>244.1</ele>
        <time>2019-02-10T10:43:35Z</time>
      </trkpt>
      <trkpt lat="38.7940530" lon="-9.3284360">
        <ele>244.1</ele>
        <time>2019-02-10T10:43:37Z</time>
      </trkpt>
      <trkpt lat="38.7940100" lon="-9.3283560">
        <ele>244.1</ele>
        <time>2019-02-10T10:43:39Z</time>
      </trkpt>
      <trkpt lat="38.7939760" lon="-9.3282900">
        <ele>247.8</ele>
        <time>2019-02-10T10:43:41Z</time>
      </trkpt>
      <trkpt lat="38.7939250" lon="-9.3282140">
        <ele>249.9</ele>
        <time>2019-02-10T10:43:43Z</time>
      </trkpt>
      <trkpt lat="38.7938840" lon="-9.3281580">
        <ele>251.4</ele>
        <time>2019-02-10T10:43:45Z</time>
      </trkpt>
      <trkpt lat="38.7938360" lon="-9.3281000">
        <ele>251.4</ele>
        <time>2019-02-10T10:43:47Z</time>
      </trkpt>
      <trkpt lat="38.7937820" lon="-9.3280800">
        <ele>251.4</ele>
        <time>2019-02-10T10:43:49Z</time>
      </trkpt>
      <trkpt lat="38.7937200" lon="-9.3280620">
        <ele>251.4</ele>
        <time>2019-02-10T10:43:51Z</time>
      </trkpt>
      <trkpt lat="38.7936720" lon="-9.3280620">
        <ele>251.4</ele>
        <time>2019-02-10T10:43:53Z</time>
      </trkpt>
      <trkpt lat="38.7936260" lon="-9.3280850">
        <ele>251.4</ele>
        <time>2019-02-10T10:43:55Z</time>
      </trkpt>
      <trkpt lat="38.7935670" lon="-9.3281360">
        <ele>251.4</ele>
        <time>2019-02-10T10:43:58Z</time>
      </trkpt>
      <trkpt lat="38.7935260" lon="-9.3281850">
        <ele>251.4</ele>
        <time>2019-02-10T10:44:01Z</time>
      </trkpt>
      <trkpt lat="38.7934720" lon="-9.3282180">
        <ele>251.4</ele>
        <time>2019-02-10T10:44:04Z</time>
      </trkpt>
      <trkpt lat="38.7934080" lon="-9.3282350">
        <ele>251.4</ele>
        <time>2019-02-10T10:44:07Z</time>
      </trkpt>
      <trkpt lat="38.7933340" lon="-9.3282490">
        <ele>251.4</ele>
        <time>2019-02-10T10:44:10Z</time>
      </trkpt>
      <trkpt lat="38.7932930" lon="-9.3282890">
        <ele>251.4</ele>
        <time>2019-02-10T10:44:13Z</time>
      </trkpt>
      <trkpt lat="38.7932770" lon="-9.3283900">
        <ele>251.4</ele>
        <time>2019-02-10T10:44:18Z</time>
      </trkpt>
    </trkseg>
  </trk>
</gpx>
